Eltham High School

Historical Weather Data

                  Temp     Hi    Low   Out         Wind        Wind    Hi    Hi   Wind   Heat          THSW                Rain  Solar   Solar Hi Solar         UV    Hi     Heat    Cool    In     In          Wind  Wind    ISS   Arc.
  Date    Time     Out   Temp   Temp   Hum    Dew Speed   Dir   Run Speed   Dir  Chill  Index    THW  Index   Bar    Rain  Rate   Rad.  Energy    Rad.    UV   Dose   UV     D-D     D-D    Temp   Hum     ET   Samp   Tx   Recept  Int.
------------------------------------------------------------------------------------------------------------------------------------------------------------------------------------------------------------------------------------------
11/05/21 12:30a   11.4   11.9   11.4    94   10.5   0.0   ---  0.00   0.0   ---   11.4   11.6   11.6   10.2  1026.7  4.06  24.4     0     0.00      0     0.0  0.00   0.0   0.145   0.000   26.7    38    0.00   649    1     94.9   30 
11/05/21  1:00a   10.9   11.4   10.9    94   10.0   0.0   ---  0.00   0.0   ---   10.9   11.1   11.1    9.6  1027.1  1.52   6.1     0     0.00      0     0.0  0.00   0.0   0.155   0.000   26.6    39    0.00   663    1     96.9   30 
11/05/21  1:30a   10.5   10.9   10.5    93    9.4   0.0   ---  0.00   0.0   ---   10.5   10.7   10.7    9.2  1027.4  0.00   0.0     0     0.00      0     0.0  0.00   0.0   0.163   0.000   26.5    39    0.00   642    1     93.9   30 
11/05/21  2:00a   10.4   10.6   10.4    91    9.0   0.0   ---  0.00   0.0   ---   10.4   10.6   10.6    9.1  1027.9  0.00   0.0     0     0.00      0     0.0  0.00   0.0   0.166   0.000   26.4    39    0.00   640    1     93.6   30 
11/05/21  2:30a   10.3   10.4   10.3    90    8.8   0.0   ---  0.00   0.0   ---   10.3   10.4   10.4    8.9  1028.1  0.00   0.0     0     0.00      0     0.0  0.00   0.0   0.167   0.000   26.3    39    0.00   620    1     90.6   30 
11/05/21  3:00a   10.3   10.3   10.3    90    8.8   0.0   ---  0.00   0.0   ---   10.3   10.4   10.4    8.9  1028.1  0.00   0.0     0     0.00      0     0.0  0.00   0.0   0.167   0.000   26.2    39    0.00   577    1     84.4   30 
11/05/21  3:30a   10.7   10.7   10.3    87    8.6   0.0   ---  0.00   0.0   ---   10.7   10.7   10.7    9.2  1028.2  0.00   0.0     0     0.00      0     0.0  0.00   0.0   0.160   0.000   26.1    39    0.00   590    1     86.3   30 
11/05/21  4:00a   10.8   10.8   10.7    85    8.4   0.0   ---  0.00   0.0   ---   10.8   10.8   10.8    9.3  1028.3  0.00   0.0     0     0.00      0     0.0  0.00   0.0   0.157   0.000   26.1    39    0.00   491    1     71.8   30 
11/05/21  4:30a   10.9   10.9   10.8    83    8.2   0.0   ---  0.00   0.0   ---   10.9   10.9   10.9    9.4  1028.6  0.00   0.0     0     0.00      0     0.0  0.00   0.0   0.154   0.000   26.0    38    0.00   483    1     70.6   30 
11/05/21  5:00a   10.9   10.9   10.9    84    8.3   0.0   ---  0.00   0.0   ---   10.9   10.9   10.9    9.4  1029.1  0.00   0.0     0     0.00      0     0.0  0.00   0.0   0.154   0.000   26.0    38    0.00   555    1     81.1   30 
11/05/21  5:30a   11.1   11.2   10.9    87    9.0   0.0   ---  0.00   0.0   ---   11.1   11.1   11.1    9.7  1029.6  0.00   0.0     0     0.00      0     0.0  0.00   0.0   0.152   0.000   25.9    38    0.00   561    1     82.0   30 
11/05/21  6:00a   10.8   11.1   10.7    91    9.4   0.0   ---  0.00   0.0   ---   10.8   10.9   10.9    9.4  1029.7  0.25   0.0     0     0.00      0     0.0  0.00   0.0   0.157   0.000   25.9    38    0.00   624    1     91.2   30 
11/05/21  6:30a   10.9   10.9   10.8    92    9.7   0.0   ---  0.00   0.0   ---   10.9   11.1   11.1    9.7  1030.0  0.51   0.0     0     0.00      0     0.0  0.00   0.0   0.154   0.000   25.9    38    0.00   630    1     92.1   30 
11/05/21  7:00a   11.0   11.1   10.9    94   10.1   0.0   ---  0.00   0.0   ---   11.0   11.2   11.2    9.8  1030.4  0.25   0.0     0     0.00      0     0.0  0.00   0.0   0.153   0.000   25.8    38    0.00   544    1     79.5   30 
11/05/21  7:30a   11.1   11.1   11.1    94   10.2   0.0   ---  0.00   0.0   ---   11.1   11.3   11.3    9.9  1030.8  0.51   1.0     1     0.04      5     0.0  0.00   0.0   0.150   0.000   25.8    38    0.00   563    1     82.3   30 
11/05/21  8:00a   11.4   11.4   11.1    95   10.7   0.0   ---  0.00   0.0   ---   11.4   11.6   11.6   11.8  1031.2  0.51   2.8    50     2.15    118     0.0  0.00   0.0   0.144   0.000   26.1    38    0.03   558    1     81.6   30 
11/05/21  8:30a   11.6   11.6   11.4    95   10.8   0.0   ---  0.00   0.0   ---   11.6   11.7   11.7   11.9  1031.6  0.00   0.0    52     2.24     98     0.0  0.00   0.0   0.141   0.000   25.8    39    0.00   506    1     74.0   30 
11/05/21  9:00a   11.8   11.8   11.6    96   11.2   0.0   ---  0.00   0.0   ---   11.8   11.9   11.9   11.9  1031.9  0.25   0.0    50     2.15    104     0.0  0.00   0.0   0.137   0.000   25.7    41    0.03   543    1     79.4   30 
11/05/21  9:30a   12.2   12.2   11.8    96   11.6   0.0   ---  0.00   0.0   ---   12.2   12.3   12.3   13.1  1032.2  0.00   0.0    88     3.78    107     0.0  0.00   0.0   0.127   0.000   26.6    41    0.00   530    1     77.5   30 
11/05/21 10:00a   12.9   12.9   12.2    96   12.3   0.0   ---  0.00   0.0   ---   12.9   13.0   13.0   14.1  1032.4  0.00   0.0   116     4.99    163     0.0  0.00   0.0   0.113   0.000   27.0    42    0.05   424    1     62.0   30 
11/05/21 10:30a   12.6   12.9   12.4    96   12.0   0.0   ---  0.00   0.0   ---   12.6   12.7   12.7   15.3  1032.9  0.25   0.0   216     9.29    338     0.4  0.09   0.8   0.119   0.000   27.4    42    0.00   540    1     78.9   30 
11/05/21 11:00a   12.8   12.9   12.6    96   12.2   0.0   ---  0.00   0.0   ---   12.8   12.9   12.9   15.6  1033.1  0.00   0.0   238    10.24    371     0.7  0.15   1.2   0.116   0.000   27.8    42    0.10   556    1     81.3   30 
11/05/21 11:30a   13.2   13.2   12.8    96   12.5   0.0   ---  0.00   0.0   ---   13.2   13.3   13.3   15.2  1033.2  0.00   0.0   186     8.00    330     0.5  0.11   0.9   0.108   0.000   28.2    43    0.00   541    1     79.1   30 
11/05/21 12:00p   13.7   13.7   13.1    96   13.0   0.0   ---  0.00   0.0   ---   13.7   13.8   13.8   14.9  1033.4  0.00   0.0   139     5.98    260     0.3  0.06   0.8   0.097   0.000   28.7    41    0.08   607    1     88.7   30 
11/05/21 12:30p   14.1   14.1   13.6    93   13.0   0.0   ---  0.00   0.0   ---   14.1   14.2   14.2   17.6  1033.1  0.00   0.0   296    12.73    459     1.2  0.26   1.6   0.088   0.000   28.1    39    0.00   684    1    100.0   30 
11/05/21  1:00p   15.3   15.4   14.1    78   11.5   0.0   ---  0.00   0.0   ---   15.3   15.2   15.2   19.3  1033.2  0.00   0.0   358    15.40    680     1.3  0.28   1.8   0.063   0.000   27.8    38    0.18   680    1     99.4   30 
11/05/21  1:30p   15.7   15.8   15.3    77   11.6   0.0   ---  0.00   0.0   ---   15.7   15.5   15.5   17.9  1033.4  0.00   0.0   224     9.63    367     0.8  0.17   1.8   0.056   0.000   27.4    38    0.00   689    1    100.0   30 
11/05/21  2:00p   15.5   15.7   15.3    77   11.5   0.0   ---  0.00   0.0   ---   15.5   15.3   15.3   18.2  1033.5  0.00   0.0   242    10.41    510     1.0  0.21   1.4   0.059   0.000   27.1    37    0.13   694    1    100.0   30 
11/05/21  2:30p   16.1   16.1   15.5    74   11.4   0.0   ---  0.00   0.0   ---   16.1   15.8   15.8   18.8  1033.8  0.00   0.0   234    10.06    432     0.8  0.17   1.1   0.047   0.000   26.6    37    0.00   687    1    100.0   30 
11/05/21  3:00p   15.6   16.1   15.5    74   10.9   0.0   ---  0.00   0.0   ---   15.6   15.3   15.3   19.1  1034.2  0.00   0.0   269    11.57    563     0.3  0.06   0.8   0.058   0.000   26.3    37    0.15   692    1    100.0   30 
11/05/21  3:30p   15.8   16.2   15.6    71   10.5   0.0   ---  0.00   0.0   ---   15.8   15.4   15.4   20.1  1034.5  0.00   0.0   356    15.31    512     0.4  0.09   0.7   0.053   0.000   26.2    37    0.00   695    1    100.0   30 
11/05/21  4:00p   15.3   15.8   15.1    73   10.5   0.0   ---  0.00   0.0   ---   15.3   15.0   15.0   17.8  1034.8  0.00   0.0   182     7.83    269     0.0  0.00   0.0   0.064   0.000   25.9    36    0.15   661    1     96.6   30 
11/05/21  4:30p   14.3   15.3   14.3    76   10.1   0.0   ---  0.00   0.0   ---   14.3   14.1   14.1   14.6  1035.1  0.00   0.0    66     2.84    146     0.0  0.00   0.0   0.084   0.000   25.7    37    0.00   634    1     92.7   30 
11/05/21  5:00p   13.7   14.3   13.6    77    9.7   0.0   ---  0.00   0.0   ---   13.7   13.4   13.4   12.4  1035.4  0.00   0.0    33     1.42     54     0.0  0.00   0.0   0.097   0.000   25.5    37    0.03   601    1     87.9   30 
11/05/21  5:30p   13.3   13.6   13.3    78    9.6   0.0   ---  0.00   0.0   ---   13.3   13.1   13.1   11.7  1035.9  0.00   0.0     3     0.13     14     0.0  0.00   0.0   0.104   0.000   25.4    35    0.00   666    1     97.4   30 
11/05/21  6:00p   13.3   13.3   13.3    78    9.5   0.0   ---  0.00   0.0   ---   13.3   13.1   13.1   11.6  1036.4  0.00   0.0     0     0.00      0     0.0  0.00   0.0   0.105   0.000   25.0    35    0.00   668    1     97.7   30 
11/05/21  6:30p   13.0   13.3   13.0    78    9.3   0.0   ---  0.00   0.0   ---   13.0   12.8   12.8   11.3  1036.7  0.00   0.0     0     0.00      0     0.0  0.00   0.0   0.111   0.000   24.8    36    0.00   580    1     84.8   30 
11/05/21  7:00p   12.7   13.0   12.7    77    8.8   0.0   ---  0.00   0.0   ---   12.7   12.5   12.5   10.9  1037.3  0.00   0.0     0     0.00      0     0.0  0.00   0.0   0.117   0.000   24.7    37    0.03   683    1     99.9   30 
11/05/21  7:30p   12.4   12.7   12.4    77    8.5   0.0   ---  0.00   0.0   ---   12.4   12.2   12.2   10.7  1037.7  0.00   0.0     0     0.00      0     0.0  0.00   0.0   0.123   0.000   24.6    39    0.00   675    1     98.7   30 
11/05/21  8:00p   12.0   12.4   12.0    79    8.5   0.0   ---  0.00   0.0   ---   12.0   11.8   11.8   10.3  1038.0  0.00   0.0     0     0.00      0     0.0  0.00   0.0   0.132   0.000   24.5    40    0.03   695    1    100.0   30 
11/05/21  8:30p   11.7   12.0   11.7    80    8.4   0.0   ---  0.00   0.0   ---   11.7   11.6   11.6   10.0  1038.3  0.00   0.0     0     0.00      0     0.0  0.00   0.0   0.138   0.000   24.4    40    0.00   699    1    100.0   30 
11/05/21  9:00p   11.5   11.7   11.5    79    8.0   0.0   ---  0.00   0.0   ---   11.5   11.3   11.3    9.8  1038.7  0.00   0.0     0     0.00      0     0.0  0.00   0.0   0.142   0.000   24.3    41    0.03   662    1     96.8   30 
11/05/21  9:30p   11.3   11.6   11.3    77    7.4   0.0   ---  0.00   0.0   ---   11.3   11.1   11.1    9.4  1038.9  0.00   0.0     0     0.00      0     0.0  0.00   0.0   0.147   0.000   24.3    43    0.00   695    1    100.0   30 
11/05/21 10:00p   10.9   11.3   10.9    79    7.4   0.0   ---  0.00   0.0   ---   10.9   10.8   10.8    9.2  1038.9  0.00   0.0     0     0.00      0     0.0  0.00   0.0   0.155   0.000   24.2    43    0.03   689    1    100.0   30 
11/05/21 10:30p   10.6   10.9   10.6    80    7.2   0.0   ---  0.00   0.0   ---   10.6   10.5   10.5    8.9  1039.0  0.00   0.0     0     0.00      0     0.0  0.00   0.0   0.162   0.000   24.1    44    0.00   694    1    100.0   30 
11/05/21 11:00p   10.3   10.6   10.3    81    7.2   0.0   ---  0.00   0.0   ---   10.3   10.3   10.3    8.7  1039.1  0.00   0.0     0     0.00      0     0.0  0.00   0.0   0.168   0.000   24.0    44    0.03   661    1     96.6   30 
11/05/21 11:30p   10.2   10.3   10.2    80    6.9   0.0   ---  0.00   0.0   ---   10.2   10.2   10.2    8.6  1039.2  0.00   0.0     0     0.00      0     0.0  0.00   0.0   0.169   0.000   24.0    44    0.00   667    1     97.5   30 
12/05/21 12:00a   10.2   10.2   10.2    80    6.9   0.0   ---  0.00   0.0   ---   10.2   10.2   10.2    8.6  1038.9  0.00   0.0     0     0.00      0     0.0  0.00   0.0   0.170   0.000   23.9    45    0.03   671    1     98.1   30 
12/05/21 12:30a    9.9   10.2    9.9    81    6.8   0.0   ---  0.00   0.0   ---    9.9    9.9    9.9    8.3  1038.9  0.00   0.0     0     0.00      0     0.0  0.00   0.0   0.175   0.000   23.9    44    0.00   655    1     95.8   30 
12/05/21  1:00a    9.7    9.9    9.7    82    6.7   0.0   ---  0.00   0.0   ---    9.7    9.7    9.7    8.1  1038.9  0.00   0.0     0     0.00      0     0.0  0.00   0.0   0.181   0.000   23.9    44    0.03   657    1     96.1   30 
12/05/21  1:30a    9.7    9.7    9.6    84    7.1   0.0   ---  0.00   0.0   ---    9.7    9.7    9.7    8.1  1038.7  0.00   0.0     0     0.00      0     0.0  0.00   0.0   0.181   0.000   23.8    43    0.00   668    1     97.7   30 
12/05/21  2:00a    9.3    9.7    9.3    85    6.9   0.0   ---  0.00   0.0   ---    9.3    9.4    9.4    7.8  1038.5  0.00   0.0     0     0.00      0     0.0  0.00   0.0   0.188   0.000   23.8    43    0.00   670    1     98.0   30 
12/05/21  2:30a    9.2    9.3    9.2    86    6.9   0.0   ---  0.00   0.0   ---    9.2    9.2    9.2    7.6  1038.2  0.00   0.0     0     0.00      0     0.0  0.00   0.0   0.191   0.000   23.7    43    0.00   670    1     98.0   30 
12/05/21  3:00a    9.0    9.2    8.9    86    6.8   0.0   ---  0.00   0.0   ---    9.0    9.1    9.1    7.4  1038.2  0.00   0.0     0     0.00      0     0.0  0.00   0.0   0.194   0.000   23.7    42    0.00   672    1     98.2   30 
12/05/21  3:30a    8.4    9.0    8.4    88    6.6   0.0   ---  0.00   0.0   ---    8.4    8.5    8.5    6.9  1037.8  0.00   0.0     0     0.00      0     0.0  0.00   0.0   0.206   0.000   23.7    41    0.00   678    1     99.1   30 
12/05/21  4:00a    7.8    8.4    7.8    88    5.9   0.0   ---  0.00   0.0   ---    7.8    7.8    7.8    6.2  1037.5  0.00   0.0     0     0.00      0     0.0  0.00   0.0   0.220   0.000   23.6    41    0.00   690    1    100.0   30 
12/05/21  4:30a    7.1    7.8    7.1    90    5.5   0.0   ---  0.00   0.0   ---    7.1    7.1    7.1    5.4  1037.5  0.00   0.0     0     0.00      0     0.0  0.00   0.0   0.235   0.000   23.6    40    0.00   685    1    100.0   30 
12/05/21  5:00a    6.2    7.1    6.2    91    4.9   0.0   ---  0.00   0.0   ---    6.2    6.2    6.2    4.6  1037.5  0.00   0.0     0     0.00      0     0.0  0.00   0.0   0.252   0.000   23.6    40    0.00   693    1    100.0   30 
12/05/21  5:30a    5.9    6.2    5.9    92    4.7   0.0   ---  0.00   0.0   ---    5.9    5.9    5.9    4.2  1037.6  0.00   0.0     0     0.00      0     0.0  0.00   0.0   0.259   0.000   23.5    40    0.00   692    1    100.0   30 
12/05/21  6:00a    5.7    5.9    5.6    93    4.7   0.0   ---  0.00   0.0   ---    5.7    5.8    5.8    4.1  1037.6  0.00   0.0     0     0.00      0     0.0  0.00   0.0   0.263   0.000   23.5    40    0.00   689    1    100.0   30 
12/05/21  6:30a    5.6    5.7    5.6    93    4.5   0.0   ---  0.00   0.0   ---    5.6    5.6    5.6    3.9  1037.8  0.00   0.0     0     0.00      0     0.0  0.00   0.0   0.266   0.000   23.4    40    0.00   680    1     99.4   30 
12/05/21  7:00a    5.3    5.6    5.3    93    4.2   0.0   ---  0.00   0.0   ---    5.3    5.3    5.3    3.6  1038.0  0.00   0.0     0     0.00      0     0.0  0.00   0.0   0.272   0.000   23.4    39    0.00   652    1     95.3   30 
12/05/21  7:30a    5.1    5.3    5.1    94    4.2   0.0   ---  0.00   0.0   ---    5.1    5.2    5.2    3.6  1038.2  0.00   0.0     8     0.34     16     0.0  0.00   0.0   0.275   0.000   23.4    39    0.00   656    1     95.9   30 
12/05/21  8:00a    5.7    5.7    5.1    94    4.8   0.0   ---  0.00   0.0   ---    5.7    5.8    5.8    5.9  1038.3  0.00   0.0    57     2.45     90     0.0  0.00   0.0   0.263   0.000   23.5    38    0.03   656    1     95.9   30 
12/05/21  8:30a    6.8    6.8    5.7    95    6.1   0.0   ---  0.00   0.0   ---    6.8    6.9    6.9    8.7  1038.4  0.00   0.0   130     5.59    167     0.0  0.00   0.0   0.240   0.000   23.6    38    0.00   681    1     99.6   30 
12/05/21  9:00a    8.5    8.5    6.8    94    7.6   0.0   ---  0.00   0.0   ---    8.5    8.7    8.7   11.8  1038.3  0.00   0.0   215     9.25    257     0.0  0.00   0.0   0.205   0.000   23.7    39    0.08   636    1     93.0   30 
12/05/21  9:30a   10.7   10.7    8.5    88    8.8   0.0   ---  0.00   0.0   ---   10.7   10.7   10.7   14.9  1038.0  0.00   0.0   299    12.86    332     0.3  0.06   0.6   0.160   0.000   23.9    39    0.00   676    1     98.8   30 
12/05/21 10:00a   11.8   11.8   10.7    82    8.8   0.0   ---  0.00   0.0   ---   11.8   11.7   11.7   16.4  1037.8  0.00   0.0   371    15.96    404     0.9  0.19   1.3   0.137   0.000   24.1    39    0.15   628    1     91.8   30 
12/05/21 10:30a   12.7   12.7   11.8    79    9.1   0.0   ---  0.00   0.0   ---   12.7   12.5   12.5   17.6  1037.4  0.00   0.0   430    18.49    459     1.2  0.26   1.3   0.118   0.000   24.5    39    0.00   657    1     96.1   30 
12/05/21 11:00a   13.7   13.7   12.7    75    9.4   0.0   ---  0.00   0.0   ---   13.7   13.4   13.4   18.8  1037.1  0.00   0.0   483    20.77    504     1.5  0.32   1.6   0.096   0.000   24.9    39    0.23   656    1     95.9   30 
12/05/21 11:30a   13.7   14.1   13.7    74    9.2   0.0   ---  0.00   0.0   ---   13.7   13.4   13.4   18.9  1036.5  0.00   0.0   517    22.23    527     1.7  0.36   1.8   0.096   0.000   25.3    40    0.00   663    1     96.9   30 
12/05/21 12:00p   14.8   14.8   13.7    72    9.8   0.0   ---  0.00   0.0   ---   14.8   14.4   14.4   20.1  1035.8  0.00   0.0   536    23.05    541     1.9  0.41   2.0   0.074   0.000   25.7    38    0.25   673    1     98.4   30 
12/05/21 12:30p   15.3   15.3   14.8    70    9.9   0.0   ---  0.00   0.0   ---   15.3   15.0   15.0   20.6  1035.2  0.00   0.0   541    23.27    543     2.0  0.43   2.0   0.063   0.000   25.8    37    0.00   653    1     95.5   30 
12/05/21  1:00p   16.2   16.2   15.3    67   10.0   0.0   ---  0.00   0.0   ---   16.2   15.8   15.8   21.4  1034.3  0.00   0.0   534    22.96    541     2.0  0.43   2.0   0.045   0.000   25.9    38    0.28   654    1     95.6   30 
12/05/21  1:30p   16.6   16.6   16.1    65    9.9   0.0   ---  0.00   0.0   ---   16.6   16.2   16.2   21.7  1033.8  0.00   0.0   512    22.02    526     1.8  0.39   1.9   0.037   0.000   26.3    38    0.00   657    1     96.1   30 
12/05/21  2:00p   16.8   16.9   16.6    65   10.2   0.0   ---  0.00   0.0   ---   16.8   16.4   16.4   21.8  1033.3  0.00   0.0   471    20.26    494     1.6  0.34   1.7   0.032   0.000   26.6    38    0.25   634    1     92.7   30 
12/05/21  2:30p   17.2   17.2   16.8    64   10.3   0.0   ---  0.00   0.0   ---   17.2   16.8   16.8   22.0  1033.0  0.00   0.0   420    18.06    446     1.3  0.28   1.4   0.023   0.000   26.5    37    0.00   667    1     97.5   30 
12/05/21  3:00p   17.9   17.9   17.1    62   10.5   0.0   ---  0.00   0.0   ---   17.9   17.5   17.5   22.3  1032.8  0.00   0.0   358    15.40    390     1.0  0.21   1.2   0.009   0.000   26.3    36    0.20   685    1    100.0   30 
12/05/21  3:30p   18.7   18.8   17.8    58   10.2   0.0   ---  0.00   0.0   ---   18.7   18.2   18.2   22.4  1032.8  0.00   0.0   287    12.34    323     0.7  0.15   0.8   0.000   0.007   26.3    37    0.00   685    1    100.0   30 
12/05/21  4:00p   18.2   18.7   18.2    60   10.3   0.0   ---  0.00   0.0   ---   18.2   17.8   17.8   20.6  1032.5  0.00   0.0   182     7.83    248     0.2  0.04   0.5   0.002   0.000   26.0    37    0.13   666    1     97.4   30 
12/05/21  4:30p   16.5   18.2   16.5    69   10.8   0.0   ---  0.00   0.0   ---   16.5   16.2   16.2   15.7  1032.3  0.00   0.0    24     1.03     44     0.0  0.00   0.0   0.038   0.000   25.7    37    0.00   649    1     94.9   30 
12/05/21  5:00p   14.8   16.5   14.8    74   10.2   0.0   ---  0.00   0.0   ---   14.8   14.6   14.6   13.4  1032.1  0.00   0.0    16     0.69     19     0.0  0.00   0.0   0.073   0.000   25.5    37    0.03   644    1     94.2   30 
12/05/21  5:30p   13.6   14.8   13.6    79   10.0   0.0   ---  0.00   0.0   ---   13.6   13.3   13.3   12.0  1031.9  0.00   0.0     5     0.22     11     0.0  0.00   0.0   0.100   0.000   25.2    36    0.00   686    1    100.0   30 
12/05/21  6:00p   12.6   13.6   12.6    84    9.9   0.0   ---  0.00   0.0   ---   12.6   12.5   12.5   11.1  1032.2  0.00   0.0     0     0.00      0     0.0  0.00   0.0   0.120   0.000   24.7    36    0.00   699    1    100.0   30 
12/05/21  6:30p   11.6   12.6   11.6    86    9.3   0.0   ---  0.00   0.0   ---   11.6   11.6   11.6   10.1  1032.2  0.00   0.0     0     0.00      0     0.0  0.00   0.0   0.141   0.000   24.5    37    0.00   698    1    100.0   30 
12/05/21  7:00p   10.8   11.6   10.8    89    9.1   0.0   ---  0.00   0.0   ---   10.8   10.9   10.9    9.5  1032.4  0.00   0.0     0     0.00      0     0.0  0.00   0.0   0.156   0.000   24.4    38    0.00   692    1    100.0   30 
12/05/21  7:30p   10.2   10.8   10.2    90    8.6   0.0   ---  0.00   0.0   ---   10.2   10.3   10.3    8.9  1032.4  0.00   0.0     0     0.00      0     0.0  0.00   0.0   0.170   0.000   24.2    39    0.00   687    1    100.0   30 
12/05/21  8:00p    9.7   10.2    9.7    91    8.3   0.0   ---  0.00   0.0   ---    9.7    9.9    9.9    8.4  1032.4  0.00   0.0     0     0.00      0     0.0  0.00   0.0   0.179   0.000   24.1    40    0.00   693    1    100.0   30 
12/05/21  8:30p    9.4    9.7    9.4    92    8.2   0.0   ---  0.00   0.0   ---    9.4    9.7    9.7    8.2  1032.3  0.00   0.0     0     0.00      0     0.0  0.00   0.0   0.185   0.000   24.1    41    0.00   695    1    100.0   30 
12/05/21  9:00p    9.1    9.5    9.1    92    7.9   0.0   ---  0.00   0.0   ---    9.1    9.3    9.3    7.8  1032.1  0.00   0.0     0     0.00      0     0.0  0.00   0.0   0.192   0.000   24.0    43    0.00   695    1    100.0   30 
12/05/21  9:30p    9.1    9.1    8.9    93    8.0   0.0   ---  0.00   0.0   ---    9.1    9.2    9.2    7.7  1031.9  0.00   0.0     0     0.00      0     0.0  0.00   0.0   0.193   0.000   24.0    44    0.00   649    1     94.9   30 
12/05/21 10:00p    8.3    9.1    8.3    93    7.2   0.0   ---  0.00   0.0   ---    8.3    8.4    8.4    6.9  1031.6  0.00   0.0     0     0.00      0     0.0  0.00   0.0   0.209   0.000   24.0    45    0.00   649    1     94.9   30 
12/05/21 10:30p    8.4    8.4    7.9    94    7.5   0.0   ---  0.00   0.0   ---    8.4    8.6    8.6    7.1  1031.4  0.00   0.0     0     0.00      0     0.0  0.00   0.0   0.206   0.000   23.9    44    0.00   551    1     80.6   30 
12/05/21 11:00p    7.5    8.4    7.5    93    6.4   0.0   ---  0.00   0.0   ---    7.5    7.6    7.6    6.1  1031.0  0.00   0.0     0     0.00      0     0.0  0.00   0.0   0.226   0.000   23.8    44    0.00   600    1     87.7   30 
12/05/21 11:30p    6.8    7.5    6.8    94    5.9   0.0   ---  0.00   0.0   ---    6.8    6.9    6.9    5.4  1030.7  0.00   0.0     0     0.00      0     0.0  0.00   0.0   0.240   0.000   23.7    43    0.00   586    1     85.7   30 
13/05/21 12:00a    6.3    6.8    6.3    94    5.4   0.0   ---  0.00   0.0   ---    6.3    6.3    6.3    4.8  1030.7  0.00   0.0     0     0.00      0     0.0  0.00   0.0   0.251   0.000   23.7    43    0.00   589    1     86.1   30 
13/05/21 12:30a    6.0    6.3    6.0    94    5.1   0.0   ---  0.00   0.0   ---    6.0    6.1    6.1    4.5  1030.2  0.00   0.0     0     0.00      0     0.0  0.00   0.0   0.257   0.000   23.6    42    0.00   543    1     79.4   30 
13/05/21  1:00a    5.6    6.0    5.6    95    4.8   0.0   ---  0.00   0.0   ---    5.6    5.6    5.6    4.0  1030.3  0.00   0.0     0     0.00      0     0.0  0.00   0.0   0.266   0.000   23.6    41    0.00   557    1     81.4   30 
13/05/21  1:30a    5.3    5.6    5.3    95    4.5   0.0   ---  0.00   0.0   ---    5.3    5.3    5.3    3.7  1029.8  0.00   0.0     0     0.00      0     0.0  0.00   0.0   0.272   0.000   23.6    40    0.00   539    1     78.8   30 
13/05/21  2:00a    5.1    5.3    5.1    95    4.3   0.0   ---  0.00   0.0   ---    5.1    5.1    5.1    3.5  1029.6  0.00   0.0     0     0.00      0     0.0  0.00   0.0   0.277   0.000   23.4    39    0.00   626    1     91.5   30 
13/05/21  2:30a    4.9    5.1    4.9    95    4.2   0.0   ---  0.00   0.0   ---    4.9    5.0    5.0    3.4  1029.3  0.00   0.0     0     0.00      0     0.0  0.00   0.0   0.279   0.000   23.4    39    0.00   651    1     95.2   30 
13/05/21  3:00a    4.7    4.9    4.7    95    3.9   0.0   ---  0.00   0.0   ---    4.7    4.7    4.7    3.1  1028.9  0.00   0.0     0     0.00      0     0.0  0.00   0.0   0.285   0.000   23.3    38    0.00   645    1     94.3   30 
13/05/21  3:30a    4.4    4.7    4.4    95    3.7   0.0   ---  0.00   0.0   ---    4.4    4.5    4.5    2.9  1028.4  0.00   0.0     0     0.00      0     0.0  0.00   0.0   0.289   0.000   23.3    38    0.00   623    1     91.1   30 
13/05/21  4:00a    4.3    4.4    4.3    95    3.5   0.0   ---  0.00   0.0   ---    4.3    4.3    4.3    2.7  1028.2  0.00   0.0     0     0.00      0     0.0  0.00   0.0   0.293   0.000   23.2    37    0.00   638    1     93.3   30 
13/05/21  4:30a    4.1    4.3    4.1    95    3.4   0.0   ---  0.00   0.0   ---    4.1    4.1    4.1    2.5  1027.9  0.00   0.0     0     0.00      0     0.0  0.00   0.0   0.296   0.000   23.2    37    0.00   608    1     88.9   30 
13/05/21  5:00a    4.1    4.2    4.1    95    3.3   0.0   ---  0.00   0.0   ---    4.1    4.1    4.1    2.4  1027.9  0.00   0.0     0     0.00      0     0.0  0.00   0.0   0.297   0.000   23.3    36    0.00   634    1     92.7   30 
13/05/21  5:30a    4.6    4.6    3.9    96    4.0   0.0   ---  0.00   0.0   ---    4.6    4.6    4.6    3.0  1027.7  0.00   0.0     0     0.00      0     0.0  0.00   0.0   0.287   0.000   23.2    36    0.00   643    1     94.0   30 
13/05/21  6:00a    4.6    4.9    4.6    96    4.0   0.0   ---  0.00   0.0   ---    4.6    4.6    4.6    3.0  1027.5  0.00   0.0     0     0.00      0     0.0  0.00   0.0   0.287   0.000   23.2    35    0.00   615    1     89.9   30 
13/05/21  6:30a    4.2    4.6    4.2    96    3.6   0.0   ---  0.00   0.0   ---    4.2    4.3    4.3    2.7  1027.4  0.00   0.0     0     0.00      0     0.0  0.00   0.0   0.294   0.000   23.2    35    0.00   606    1     88.6   30 
13/05/21  7:00a    4.1    4.2    4.1    96    3.5   0.0   ---  0.00   0.0   ---    4.1    4.2    4.2    2.6  1027.3  0.00   0.0     1     0.04      5     0.0  0.00   0.0   0.296   0.000   23.2    35    0.00   590    1     86.3   30 
13/05/21  7:30a    4.2    4.2    4.1    96    3.6   0.0   ---  0.00   0.0   ---    4.2    4.3    4.3    2.8  1027.4  0.25   0.0    12     0.52     23     0.0  0.00   0.0   0.294   0.000   23.2    35    0.00   553    1     80.8   30 
13/05/21  8:00a    5.1    5.1    4.2    97    4.6   0.0   ---  0.00   0.0   ---    5.1    5.1    5.1    4.9  1026.9  0.00   0.0    42     1.81     65     0.0  0.00   0.0   0.277   0.000   23.3    35    0.00   553    1     80.8   30 
13/05/21  8:30a    6.8    6.8    5.1    97    6.4   0.0   ---  0.00   0.0   ---    6.8    7.0    7.0    8.9  1026.4  0.00   0.0   138     5.93    211     0.0  0.00   0.0   0.240   0.000   23.6    35    0.00   548    1     80.1   30 
13/05/21  9:00a   10.7   10.7    6.8    98   10.4   0.0   ---  0.00   0.0   ---   10.7   11.0   11.0   14.3  1026.1  0.00   0.0   215     9.25    322     0.0  0.00   0.0   0.159   0.000   23.7    37    0.08   646    1     94.4   30 
13/05/21  9:30a   14.7   14.7   10.7    70    9.3   0.0   ---  0.00   0.0   ---   14.7   14.3   14.3   17.2  1025.8  0.00   0.0   207     8.90    278     0.0  0.00   0.0   0.075   0.000   23.9    37    0.00   672    1     98.2   30 
13/05/21 10:00a   14.8   15.0   14.7    67    8.7   0.0   ---  0.00   0.0   ---   14.8   14.3   14.3   15.3  1026.2  0.00   0.0   114     4.90    236     0.0  0.00   0.0   0.074   0.000   24.2    38    0.08   690    1    100.0   30 
13/05/21 10:30a   14.6   14.8   14.6    67    8.5   0.0   ---  0.00   0.0   ---   14.6   14.1   14.1   15.5  1026.2  0.00   0.0   147     6.32    195     0.2  0.04   0.6   0.078   0.000   24.4    38    0.00   686    1    100.0   30 
13/05/21 11:00a   14.6   14.7   14.6    68    8.8   0.0   ---  0.00   0.0   ---   14.6   14.1   14.1   15.7  1026.0  0.00   0.0   162     6.97    199     0.6  0.13   0.6   0.078   0.000   24.7    38    0.08   659    1     96.3   30 
13/05/21 11:30a   14.9   14.9   14.6    67    8.8   0.0   ---  0.00   0.0   ---   14.9   14.4   14.4   16.6  1025.9  0.00   0.0   213     9.16    348     0.9  0.19   1.3   0.072   0.000   25.1    39    0.00   687    1    100.0   30 
13/05/21 12:00p   14.9   15.1   14.9    67    8.8   0.0   ---  0.00   0.0   ---   14.9   14.4   14.4   16.4  1025.4  0.00   0.0   205     8.82    394     0.8  0.17   1.2   0.072   0.000   25.5    39    0.13   682    1     99.7   30 
13/05/21 12:30p   15.7   15.7   14.9    66    9.4   0.0   ---  0.00   0.0   ---   15.7   15.3   15.3   19.4  1024.7  0.00   0.0   372    16.00    819     1.5  0.32   2.2   0.054   0.000   25.7    38    0.00   664    1     97.1   30 
13/05/21  1:00p   16.4   16.4   15.6    66   10.1   0.0   ---  0.00   0.0   ---   16.4   16.1   16.1   21.8  1024.1  0.00   0.0   557    23.95    622     1.9  0.41   2.2   0.039   0.000   26.0    38    0.25   686    1    100.0   30 
13/05/21  1:30p   16.5   16.9   16.4    65    9.9   0.0   ---  0.00   0.0   ---   16.5   16.1   16.1   20.7  1023.4  0.00   0.0   392    16.86    631     1.5  0.32   2.1   0.038   0.000   26.1    38    0.00   696    1    100.0   30 
13/05/21  2:00p   16.7   16.8   16.5    62    9.3   0.0   ---  0.00   0.0   ---   16.7   16.1   16.1   17.0  1023.4  0.00   0.0   118     5.07    548     0.3  0.06   1.3   0.035   0.000   26.0    38    0.15   700    1    100.0   30 
13/05/21  2:30p   14.1   16.7   14.1    83   11.2   0.0   ---  0.00   0.0   ---   14.1   13.9   13.9   13.7  1024.3  0.51   4.3    50     2.15     76     0.0  0.00   0.0   0.089   0.000   25.9    38    0.00   652    1     95.3   30 
13/05/21  3:00p   13.1   14.1   13.1    89   11.3   0.0   ---  0.00   0.0   ---   13.1   13.1   13.1   12.7  1024.5  2.79   9.1    35     1.51     53     0.0  0.00   0.0   0.110   0.000   25.7    38    0.03   618    1     90.4   30 
13/05/21  3:30p   12.8   13.1   12.8    92   11.5   0.0   ---  0.00   0.0   ---   12.8   12.8   12.8   12.3  1024.8  2.03   9.1    29     1.25     39     0.0  0.00   0.0   0.116   0.000   25.7    39    0.00   583    1     85.2   30 
13/05/21  4:00p   12.6   12.8   12.5    93   11.5   0.0   ---  0.00   0.0   ---   12.6   12.7   12.7   12.2  1024.8  0.51   3.8    26     1.12     33     0.0  0.00   0.0   0.120   0.000   25.5    39    0.03   522    1     76.3   30 
13/05/21  4:30p   11.7   12.6   11.7    93   10.6   0.0   ---  0.00   0.0   ---   11.7   11.8   11.8   11.0  1025.1  2.54  36.8    11     0.47     18     0.0  0.00   0.0   0.138   0.000   25.3    40    0.00   552    1     80.7   30 
13/05/21  5:00p   11.0   11.7   10.9    93    9.9   0.0   ---  0.00   0.0   ---   11.0   11.2   11.2    9.9  1025.6  0.76   1.3     8     0.34     12     0.0  0.00   0.0   0.153   0.000   24.9    40    0.00   555    1     81.1   30 
13/05/21  5:30p   11.1   11.1   10.9    93   10.0   0.0   ---  0.00   0.0   ---   11.1   11.2   11.2    9.8  1025.7  0.00   0.0     0     0.00      5     0.0  0.00   0.0   0.152   0.000   24.6    39    0.00   612    1     89.5   30 
13/05/21  6:00p   10.9   11.1   10.9    93    9.9   0.0   ---  0.00   0.0   ---   10.9   11.1   11.1    9.7  1026.0  0.00   0.0     0     0.00      0     0.0  0.00   0.0   0.154   0.000   24.5    39    0.00   621    1     90.8   30 
13/05/21  6:30p   10.6   10.9   10.6    93    9.5   0.0   ---  0.00   0.0   ---   10.6   10.8   10.8    9.4  1026.4  0.00   0.0     0     0.00      0     0.0  0.00   0.0   0.161   0.000   24.4    40    0.00   641    1     93.7   30 
13/05/21  7:00p   10.3   10.6   10.3    94    9.4   0.0   ---  0.00   0.0   ---   10.3   10.6   10.6    9.2  1026.8  0.00   0.0     0     0.00      0     0.0  0.00   0.0   0.167   0.000   24.4    40    0.00   649    1     94.9   30 
13/05/21  7:30p    9.8   10.3    9.8    93    8.8   0.0   ---  0.00   0.0   ---    9.8   10.1   10.1    8.6  1026.9  0.00   0.0     0     0.00      0     0.0  0.00   0.0   0.177   0.000   24.3    42    0.00   648    1     94.7   30 
13/05/21  8:00p    9.3    9.8    9.3    93    8.3   0.0   ---  0.00   0.0   ---    9.3    9.6    9.6    8.1  1026.9  0.00   0.0     0     0.00      0     0.0  0.00   0.0   0.188   0.000   24.2    42    0.00   637    1     93.1   30 
13/05/21  8:30p    8.9    9.3    8.9    93    7.8   0.0   ---  0.00   0.0   ---    8.9    9.1    9.1    7.6  1027.1  0.00   0.0     0     0.00      0     0.0  0.00   0.0   0.197   0.000   24.1    44    0.00   643    1     94.0   30 
13/05/21  9:00p    8.4    8.9    8.4    94    7.5   0.0   ---  0.00   0.0   ---    8.4    8.6    8.6    7.1  1027.2  0.00   0.0     0     0.00      0     0.0  0.00   0.0   0.206   0.000   24.1    45    0.00   621    1     90.8   30 
13/05/21  9:30p    7.9    8.4    7.9    94    7.0   0.0   ---  0.00   0.0   ---    7.9    8.1    8.1    6.6  1027.4  0.25   0.0     0     0.00      0     0.0  0.00   0.0   0.218   0.000   24.1    45    0.00   611    1     89.3   30 
13/05/21 10:00p    7.9    7.9    7.8    94    7.0   0.0   ---  0.00   0.0   ---    7.9    8.1    8.1    6.6  1027.5  0.00   0.0     0     0.00      0     0.0  0.00   0.0   0.216   0.000   24.0    46    0.00   611    1     89.3   30 
13/05/21 10:30p    8.0    8.0    7.8    95    7.2   0.0   ---  0.00   0.0   ---    8.0    8.2    8.2    6.7  1027.4  0.00   0.0     0     0.00      0     0.0  0.00   0.0   0.215   0.000   23.9    46    0.00   594    1     86.8   30 
13/05/21 11:00p    7.3    8.0    7.3    94    6.4   0.0   ---  0.00   0.0   ---    7.3    7.4    7.4    5.9  1027.4  0.00   0.0     0     0.00      0     0.0  0.00   0.0   0.229   0.000   23.9    47    0.00   594    1     86.8   30 
13/05/21 11:30p    6.7    7.3    6.7    94    5.8   0.0   ---  0.00   0.0   ---    6.7    6.8    6.8    5.2  1027.3  0.00   0.0     0     0.00      0     0.0  0.00   0.0   0.243   0.000   23.8    47    0.00   507    1     74.1   30 
14/05/21 12:00a    6.2    6.7    6.2    95    5.4   0.0   ---  0.00   0.0   ---    6.2    6.2    6.2    4.7  1027.3  0.00   0.0     0     0.00      0     0.0  0.00   0.0   0.253   0.000   23.8    47    0.00   506    1     74.0   30 
14/05/21 12:30a    5.9    6.2    5.9    95    5.2   0.0   ---  0.00   0.0   ---    5.9    6.0    6.0    4.4  1027.0  0.00   0.0     0     0.00      0     0.0  0.00   0.0   0.258   0.000   23.7    45    0.00   493    1     72.1   30 
14/05/21  1:00a    5.9    5.9    5.7    95    5.2   0.0   ---  0.00   0.0   ---    5.9    6.0    6.0    4.4  1026.8  0.00   0.0     0     0.00      0     0.0  0.00   0.0   0.258   0.000   23.7    44    0.00   557    1     81.4   30 
14/05/21  1:30a    5.7    5.9    5.7    95    4.9   0.0   ---  0.00   0.0   ---    5.7    5.7    5.7    4.2  1026.7  0.00   0.0     0     0.00      0     0.0  0.00   0.0   0.264   0.000   23.7    43    0.00   520    1     76.0   30 
14/05/21  2:00a    5.6    5.7    5.6    95    4.8   0.0   ---  0.00   0.0   ---    5.6    5.6    5.6    4.1  1026.5  0.00   0.0     0     0.00      0     0.0  0.00   0.0   0.266   0.000   23.6    43    0.00   531    1     77.6   30 
14/05/21  2:30a    5.3    5.6    5.3    95    4.5   0.0   ---  0.00   0.0   ---    5.3    5.3    5.3    3.8  1026.3  0.00   0.0     0     0.00      0     0.0  0.00   0.0   0.272   0.000   23.6    42    0.00   542    1     79.2   30 
14/05/21  3:00a    5.5    5.5    5.1    96    4.9   0.0   ---  0.00   0.0   ---    5.5    5.6    5.6    4.0  1026.0  0.00   0.0     0     0.00      0     0.0  0.00   0.0   0.267   0.000   23.5    42    0.00   511    1     74.7   30 
14/05/21  3:30a    5.9    5.9    5.5    96    5.3   0.0   ---  0.00   0.0   ---    5.9    5.9    5.9    4.4  1025.7  0.00   0.0     0     0.00      0     0.0  0.00   0.0   0.259   0.000   23.5    41    0.00   515    1     75.3   30 
14/05/21  4:00a    6.5    6.5    5.9    96    5.9   0.0   ---  0.00   0.0   ---    6.5    6.6    6.6    5.1  1025.7  0.00   0.0     0     0.00      0     0.0  0.00   0.0   0.247   0.000   23.5    40    0.00   554    1     81.0   30 
14/05/21  4:30a    6.9    6.9    6.5    95    6.1   0.0   ---  0.00   0.0   ---    6.9    7.0    7.0    5.5  1025.7  0.00   0.0     0     0.00      0     0.0  0.00   0.0   0.238   0.000   23.5    40    0.00   581    1     84.9   30 
14/05/21  5:00a    7.5    7.5    6.9    94    6.6   0.0   ---  0.00   0.0   ---    7.5    7.6    7.6    6.1  1025.6  0.00   0.0     0     0.00      0     0.0  0.00   0.0   0.226   0.000   23.4    40    0.00   602    1     88.0   30 
14/05/21  5:30a    7.3    7.7    7.3    93    6.3   0.0   ---  0.00   0.0   ---    7.3    7.4    7.4    5.9  1026.1  0.00   0.0     0     0.00      0     0.0  0.00   0.0   0.229   0.000   23.4    39    0.00   592    1     86.5   30 
14/05/21  6:00a    7.1    7.3    7.0    94    6.2   0.0   ---  0.00   0.0   ---    7.1    7.2    7.2    5.7  1026.2  0.00   0.0     0     0.00      0     0.0  0.00   0.0   0.235   0.000   23.4    39    0.00   594    1     86.8   30 
14/05/21  6:30a    7.3    7.3    7.1    94    6.4   0.0   ---  0.00   0.0   ---    7.3    7.4    7.4    5.9  1026.5  0.00   0.0     0     0.00      0     0.0  0.00   0.0   0.230   0.000   23.4    39    0.00   606    1     88.6   30 
14/05/21  7:00a    7.2    7.3    7.2    94    6.3   0.0   ---  0.00   0.0   ---    7.2    7.3    7.3    5.8  1026.8  0.00   0.0     0     0.00      0     0.0  0.00   0.0   0.231   0.000   23.4    38    0.00   602    1     88.0   30 
14/05/21  7:30a    7.2    7.2    7.1    95    6.5   0.0   ---  0.00   0.0   ---    7.2    7.3    7.3    5.9  1027.0  0.00   0.0     7     0.30     25     0.0  0.00   0.0   0.231   0.000   23.4    38    0.00   613    1     89.6   30 
14/05/21  8:00a    8.2    8.2    7.2    95    7.4   0.0   ---  0.00   0.0   ---    8.2    8.3    8.3    7.9  1027.4  0.00   0.0    28     1.20     40     0.0  0.00   0.0   0.212   0.000   23.5    38    0.00   595    1     87.0   30 
14/05/21  8:30a    9.0    9.0    8.2    93    7.9   0.0   ---  0.00   0.0   ---    9.0    9.2    9.2    9.4  1027.7  0.00   0.0    57     2.45     67     0.0  0.00   0.0   0.194   0.000   23.5    38    0.00   620    1     90.6   30 
14/05/21  9:00a   10.1   10.1    9.0    88    8.2   0.0   ---  0.00   0.0   ---   10.1   10.2   10.2   11.4  1028.0  0.00   0.0   108     4.64    149     0.0  0.00   0.0   0.171   0.000   23.6    39    0.03   605    1     88.5   30 
14/05/21  9:30a   11.4   11.4   10.1    81    8.3   0.0   ---  0.00   0.0   ---   11.4   11.3   11.3   14.2  1028.3  0.00   0.0   207     8.90    408     0.1  0.02   0.6   0.144   0.000   23.9    39    0.00   544    1     79.5   30 
14/05/21 10:00a   12.6   12.6   11.4    74    8.1   0.0   ---  0.00   0.0   ---   12.6   12.3   12.3   16.4  1028.2  0.00   0.0   317    13.63    439     0.7  0.15   0.9   0.119   0.000   24.1    39    0.13   637    1     93.1   30 
14/05/21 10:30a   13.2   13.2   12.6    71    8.1   0.0   ---  0.00   0.0   ---   13.2   12.8   12.8   18.0  1028.3  0.00   0.0   441    18.97    612     1.0  0.21   1.2   0.106   0.000   24.4    39    0.00   666    1     97.4   30 
14/05/21 11:00a   13.7   13.8   13.2    68    7.9   0.0   ---  0.00   0.0   ---   13.7   13.2   13.2   17.6  1028.3  0.25   0.0   374    16.08    594     1.1  0.24   1.5   0.096   0.000   24.6    39    0.20   675    1     98.7   30 
14/05/21 11:30a   13.7   13.8   13.6    64    7.0   0.0   ---  0.00   0.0   ---   13.7   13.1   13.1   16.0  1028.2  0.00   0.0   267    11.48    475     1.0  0.21   1.4   0.097   0.000   24.8    38    0.00   701    1    100.0   30 
14/05/21 12:00p   13.8   14.0   13.7    65    7.4   0.0   ---  0.00   0.0   ---   13.8   13.3   13.3   16.6  1027.9  0.00   0.0   304    13.07    403     1.1  0.24   1.3   0.094   0.000   25.1    38    0.15   688    1    100.0   30 
14/05/21 12:30p   13.6   13.8   13.4    65    7.1   0.0   ---  0.00   0.0   ---   13.6   13.0   13.0   16.2  1027.6  0.00   0.0   291    12.51    418     1.2  0.26   1.5   0.100   0.000   25.3    37    0.00   698    1    100.0   30 
14/05/21  1:00p   14.5   14.6   13.6    62    7.3   0.0   ---  0.00   0.0   ---   14.5   13.8   13.8   19.3  1027.2  0.00   0.0   525    22.58    726     1.6  0.34   2.0   0.080   0.000   25.4    37    0.20   697    1    100.0   30 
14/05/21  1:30p   14.7   14.9   14.4    60    7.0   0.0   ---  0.00   0.0   ---   14.7   13.9   13.9   19.5  1027.1  0.00   0.0   557    23.95    654     1.4  0.30   1.7   0.076   0.000   25.6    37    0.00   698    1    100.0   30 
14/05/21  2:00p   14.7   14.7   14.2    62    7.5   0.0   ---  0.00   0.0   ---   14.7   14.1   14.1   18.1  1026.9  0.00   0.0   337    14.49    624     0.9  0.19   1.3   0.075   0.000   25.7    36    0.23   687    1    100.0   30 
14/05/21  2:30p   13.9   14.9   13.9    63    7.0   0.0   ---  0.00   0.0   ---   13.9   13.3   13.3   14.0  1026.9  0.00   0.0   104     4.47    260     0.1  0.02   0.8   0.091   0.000   25.6    36    0.00   699    1    100.0   30 
14/05/21  3:00p   13.8   13.9   13.8    64    7.1   0.0   ---  0.00   0.0   ---   13.8   13.2   13.2   13.9  1027.0  0.00   0.0    98     4.21    114     0.0  0.00   0.0   0.095   0.000   25.3    36    0.05   687    1    100.0   30 
14/05/21  3:30p   14.0   14.0   13.6    66    7.7   0.0   ---  0.00   0.0   ---   14.0   13.4   13.4   16.4  1027.0  0.00   0.0   207     8.90    373     0.0  0.00   0.5   0.090   0.000   25.2    36    0.00   686    1    100.0   30 
14/05/21  4:00p   13.5   14.1   13.5    64    6.8   0.0   ---  0.00   0.0   ---   13.5   12.9   12.9   13.6  1027.2  0.00   0.0    79     3.40    111     0.0  0.00   0.0   0.101   0.000   25.1    36    0.08   693    1    100.0   30 
14/05/21  4:30p   13.1   13.5   13.1    63    6.2   0.0   ---  0.00   0.0   ---   13.1   12.5   12.5   12.9  1027.5  0.00   0.0    65     2.80     97     0.0  0.00   0.0   0.109   0.000   24.8    36    0.00   685    1    100.0   30 
14/05/21  5:00p   12.7   13.1   12.7    69    7.2   0.0   ---  0.00   0.0   ---   12.7   12.3   12.3   11.2  1027.7  0.00   0.0    40     1.72     67     0.0  0.00   0.0   0.117   0.000   24.7    37    0.03   695    1    100.0   30 
14/05/21  5:30p   12.1   12.7   12.1    74    7.6   0.0   ---  0.00   0.0   ---   12.1   11.8   11.8   10.2  1028.0  0.25   0.0     2     0.09     11     0.0  0.00   0.0   0.131   0.000   24.5    37    0.00   661    1     96.6   30 
14/05/21  6:00p   10.9   12.1   10.9    83    8.1   0.0   ---  0.00   0.0   ---   10.9   10.8   10.8    9.3  1028.2  0.00   0.0     0     0.00      0     0.0  0.00   0.0   0.155   0.000   24.3    37    0.00   667    1     97.5   30 
14/05/21  6:30p   10.6   10.9   10.5    86    8.3   0.0   ---  0.00   0.0   ---   10.6   10.6   10.6    9.0  1028.3  0.00   0.0     0     0.00      0     0.0  0.00   0.0   0.162   0.000   24.3    38    0.00   645    1     94.3   30 
14/05/21  7:00p   10.6   10.6   10.4    84    8.0   0.0   ---  0.00   0.0   ---   10.6   10.6   10.6    9.1  1028.3  0.00   0.0     0     0.00      0     0.0  0.00   0.0   0.161   0.000   24.2    39    0.00   632    1     92.4   30 
14/05/21  7:30p   10.3   10.8   10.3    84    7.7   0.0   ---  0.00   0.0   ---   10.3   10.3   10.3    8.7  1028.2  0.25   0.0     0     0.00      0     0.0  0.00   0.0   0.167   0.000   24.1    40    0.00   665    1     97.2   30 
14/05/21  8:00p    9.2   10.3    9.2    87    7.1   0.0   ---  0.00   0.0   ---    9.2    9.2    9.2    7.6  1028.0  0.00   0.0     0     0.00      0     0.0  0.00   0.0   0.191   0.000   24.0    40    0.00   675    1     98.7   30 
14/05/21  8:30p    9.1    9.2    8.9    90    7.5   0.0   ---  0.00   0.0   ---    9.1    9.2    9.2    7.6  1027.8  0.00   0.0     0     0.00      0     0.0  0.00   0.0   0.193   0.000   24.0    40    0.00   641    1     93.7   30 
14/05/21  9:00p    9.1    9.1    9.1    90    7.5   0.0   ---  0.00   0.0   ---    9.1    9.2    9.2    7.6  1027.7  0.00   0.0     0     0.00      0     0.0  0.00   0.0   0.193   0.000   23.9    40    0.00   636    1     93.0   30 
14/05/21  9:30p    9.4    9.4    9.1    89    7.7   0.0   ---  0.00   0.0   ---    9.4    9.6    9.6    7.9  1027.4  0.00   0.0     0     0.00      0     0.0  0.00   0.0   0.186   0.000   23.9    40    0.00   587    1     85.8   30 
14/05/21 10:00p    9.5    9.5    9.4    84    6.9   0.0   ---  0.00   0.0   ---    9.5    9.6    9.6    7.9  1027.2  0.00   0.0     0     0.00      0     0.0  0.00   0.0   0.184   0.000   23.9    40    0.00   637    1     93.1   30 
14/05/21 10:30p    9.7    9.7    9.5    80    6.4   0.0   ---  0.00   0.0   ---    9.7    9.6    9.6    8.0  1026.7  0.00   0.0     0     0.00      0     0.0  0.00   0.0   0.181   0.000   23.8    39    0.00   626    1     91.5   30 
14/05/21 11:00p    9.9    9.9    9.6    78    6.2   0.0   ---  0.00   0.0   ---    9.9    9.8    9.8    8.2  1026.0  0.00   0.0     0     0.00      0     0.0  0.00   0.0   0.176   0.000   23.8    39    0.03   619    1     90.5   30 
14/05/21 11:30p    9.8    9.9    9.8    78    6.2   0.0   ---  0.00   0.0   ---    9.8    9.8    9.8    8.2  1025.7  0.00   0.0     0     0.00      0     0.0  0.00   0.0   0.177   0.000   23.7    39    0.00   615    1     89.9   30 
15/05/21 12:00a    9.5    9.8    9.5    79    6.0   0.0   ---  0.00   0.0   ---    9.5    9.4    9.4    7.8  1025.4  0.00   0.0     0     0.00      0     0.0  0.00   0.0   0.184   0.000   23.7    39    0.03   614    1     89.8   30 
15/05/21 12:30a    9.7    9.7    9.4    79    6.2   0.0   ---  0.00   0.0   ---    9.7    9.6    9.6    8.0  1024.7  0.00   0.0     0     0.00      0     0.0  0.00   0.0   0.181   0.000   23.7    38    0.00   628    1     91.8   30 
15/05/21  1:00a    9.9   10.1    9.7    81    6.8   0.0   ---  0.00   0.0   ---    9.9    9.9    9.9    8.3  1024.0  0.25   0.0     0     0.00      0     0.0  0.00   0.0   0.176   0.000   23.7    38    0.03   659    1     96.3   30 
15/05/21  1:30a    9.7    9.9    9.7    84    7.1   0.0   ---  0.00   0.0   ---    9.7    9.7    9.7    8.1  1024.3  0.25   0.0     0     0.00      0     0.0  0.00   0.0   0.181   0.000   23.6    38    0.00   675    1     98.7   30 
15/05/21  2:00a    9.5    9.7    9.5    85    7.1   0.0   ---  0.00   0.0   ---    9.5    9.6    9.6    7.9  1024.2  0.25   1.0     0     0.00      0     0.0  0.00   0.0   0.184   0.000   23.6    38    0.00   656    1     95.9   30 
15/05/21  2:30a    9.9    9.9    9.5    82    7.0   0.0   ---  0.00   0.0   ---    9.9    9.9    9.9    8.3  1024.3  0.00   0.0     0     0.00      0     0.0  0.00   0.0   0.175   0.000   23.6    38    0.00   652    1     95.3   30 
15/05/21  3:00a    9.9   10.1    9.9    79    6.4   0.0   ---  0.00   0.0   ---    9.9    9.8    9.8    8.2  1024.4  0.00   0.0     0     0.00      0     0.0  0.00   0.0   0.176   0.000   23.6    38    0.00   635    1     92.8   30 
15/05/21  3:30a    9.8    9.9    9.8    79    6.3   0.0   ---  0.00   0.0   ---    9.8    9.7    9.7    8.1  1024.6  0.00   0.0     0     0.00      0     0.0  0.00   0.0   0.178   0.000   23.6    38    0.00   605    1     88.5   30 
15/05/21  4:00a    8.5    9.8    8.5    86    6.3   0.0   ---  0.00   0.0   ---    8.5    8.5    8.5    6.9  1025.6  2.29  18.5     0     0.00      0     0.0  0.00   0.0   0.205   0.000   23.6    37    0.03   638    1     93.3   30 
15/05/21  4:30a    7.9    8.5    7.9    90    6.4   0.0   ---  0.00   0.0   ---    7.9    8.0    8.0    6.4  1025.8  0.51   6.1     0     0.00      0     0.0  0.00   0.0   0.216   0.000   23.6    37    0.00   679    1     99.3   30 
15/05/21  5:00a    7.4    8.1    7.4    89    5.7   0.0   ---  0.00   0.0   ---    7.4    7.4    7.4    5.8  1026.4  1.78  11.2     0     0.00      0     0.0  0.00   0.0   0.228   0.000   23.6    37    0.00   663    1     96.9   30 
15/05/21  5:30a    6.8    7.4    6.6    91    5.5   0.0   ---  0.00   0.0   ---    6.8    6.9    6.9    5.2  1027.3  2.79  38.1     0     0.00      0     0.0  0.00   0.0   0.240   0.000   23.6    37    0.00   691    1    100.0   30 
15/05/21  6:00a    7.0    7.1    6.8    91    5.6   0.0   ---  0.00   0.0   ---    7.0    7.1    7.1    5.4  1027.5  0.00   0.0     0     0.00      0     0.0  0.00   0.0   0.236   0.000   23.6    37    0.00   698    1    100.0   30 
15/05/21  6:30a    6.3    7.0    6.3    90    4.8   0.0   ---  0.00   0.0   ---    6.3    6.3    6.3    4.6  1028.4  2.54  30.5     0     0.00      0     0.0  0.00   0.0   0.251   0.000   23.5    37    0.00   685    1    100.0   30 
15/05/21  7:00a    6.2    6.3    5.9    92    5.0   0.0   ---  0.00   0.0   ---    6.2    6.3    6.3    4.6  1029.1  0.25   5.6     0     0.00      0     0.0  0.00   0.0   0.252   0.000   23.5    37    0.00   618    1     90.4   30 
15/05/21  7:30a    6.2    6.3    6.2    92    5.0   0.0   ---  0.00   0.0   ---    6.2    6.2    6.2    4.5  1029.7  0.76   5.8     4     0.17     19     0.0  0.00   0.0   0.253   0.000   23.5    37    0.00   648    1     94.7   30 
15/05/21  8:00a    6.3    6.3    6.2    91    5.0   0.0   ---  0.00   0.0   ---    6.3    6.4    6.4    6.2  1030.1  0.51  23.4    41     1.76    137     0.0  0.00   0.0   0.250   0.000   23.5    37    0.00   691    1    100.0   30 
15/05/21  8:30a    7.1    7.1    6.3    91    5.7   0.0   ---  0.00   0.0   ---    7.1    7.1    7.1    8.8  1031.0  0.25   2.0   130     5.59    234     0.0  0.00   0.0   0.235   0.000   23.5    36    0.00   692    1    100.0   30 
15/05/21  9:00a    7.3    7.3    7.0    90    5.7   0.0   ---  0.00   0.0   ---    7.3    7.3    7.3    9.1  1031.3  0.25   0.0   136     5.85    330     0.0  0.00   0.0   0.230   0.000   23.4    36    0.05   674    1     98.5   30 
15/05/21  9:30a    8.1    8.1    7.3    89    6.4   0.0   ---  0.00   0.0   ---    8.1    8.2    8.2   11.0  1031.5  0.00   0.0   210     9.03    348     0.0  0.00   0.0   0.213   0.000   23.4    36    0.00   694    1    100.0   30 
15/05/21 10:00a    8.3    8.7    8.1    86    6.1   0.0   ---  0.00   0.0   ---    8.3    8.3    8.3   10.8  1032.2  0.25   0.0   211     9.07    548     0.1  0.02   0.7   0.209   0.000   23.5    36    0.10   687    1    100.0   30 
15/05/21 10:30a    8.9    8.9    8.3    87    6.9   0.0   ---  0.00   0.0   ---    8.9    9.0    9.0   11.1  1032.5  0.00   0.0   190     8.17    561     0.2  0.04   0.7   0.196   0.000   23.4    36    0.00   686    1    100.0   30 
15/05/21 11:00a    9.2    9.4    8.9    84    6.6   0.0   ---  0.00   0.0   ---    9.2    9.2    9.2   10.0  1033.0  0.25   0.0   123     5.29    322     0.1  0.02   0.5   0.191   0.000   23.4    36    0.08   684    1    100.0   30 
15/05/21 11:30a    9.4    9.4    9.1    87    7.3   0.0   ---  0.00   0.0   ---    9.4    9.5    9.5   11.2  1033.0  0.25   0.0   182     7.83    673     0.5  0.11   1.4   0.186   0.000   23.5    36    0.00   671    1     98.1   30 
15/05/21 12:00p   10.7   10.7    9.3    82    7.7   0.0   ---  0.00   0.0   ---   10.7   10.6   10.6   13.6  1032.9  0.00   0.0   269    11.57    745     0.9  0.19   1.7   0.160   0.000   23.5    36    0.13   680    1     99.4   30 
15/05/21 12:30p   11.3   11.5   10.7    71    6.2   0.0   ---  0.00   0.0   ---   11.3   10.9   10.9   13.2  1032.9  0.25   0.0   222     9.55    617     0.9  0.19   1.6   0.147   0.000   23.5    36    0.00   691    1    100.0   30 
15/05/21  1:00p   11.9   11.9   11.3    73    7.2   0.0   ---  0.00   0.0   ---   11.9   11.6   11.6   15.1  1033.0  0.00   0.0   316    13.59    708     1.2  0.26   1.8   0.134   0.000   23.6    36    0.13   653    1     95.5   30 
15/05/21  1:30p   11.9   12.6   11.8    72    7.0   0.0   ---  0.00   0.0   ---   11.9   11.6   11.6   16.2  1033.0  0.00   0.0   406    17.46    671     1.2  0.26   1.7   0.134   0.000   23.6    36    0.00   652    1     95.3   30 
15/05/21  2:00p   12.4   12.7   11.9    68    6.6   0.0   ---  0.00   0.0   ---   12.4   11.9   11.9   17.2  1033.2  0.00   0.0   466    20.04    686     1.1  0.24   1.5   0.124   0.000   23.6    36    0.20   652    1     95.3   30 
15/05/21  2:30p   12.9   13.0   11.9    65    6.5   0.0   ---  0.00   0.0   ---   12.9   12.3   12.3   16.7  1033.4  0.00   0.0   346    14.88    531     0.8  0.17   1.1   0.113   0.000   23.6    36    0.00   646    1     94.4   30 
15/05/21  3:00p   12.5   12.9   12.2    67    6.5   0.0   ---  0.00   0.0   ---   12.5   12.0   12.0   16.4  1033.5  0.00   0.0   329    14.15    487     0.5  0.11   0.7   0.122   0.000   23.6    36    0.18   670    1     98.0   30 
15/05/21  3:30p   12.4   12.7   12.4    66    6.3   0.0   ---  0.00   0.0   ---   12.4   11.9   11.9   16.6  1033.8  0.00   0.0   357    15.35    529     0.3  0.06   0.6   0.123   0.000   23.7    36    0.00   660    1     96.5   30 
15/05/21  4:00p   12.2   12.6   12.2    64    5.6   0.0   ---  0.00   0.0   ---   12.2   11.7   11.7   14.6  1034.2  0.00   0.0   195     8.39    295     0.0  0.00   0.0   0.127   0.000   23.7    36    0.13   660    1     96.5   30 
15/05/21  4:30p   11.9   12.3   11.9    61    4.7   0.0   ---  0.00   0.0   ---   11.9   11.3   11.3   11.8  1034.5  0.00   0.0    70     3.01    104     0.0  0.00   0.0   0.133   0.000   23.6    36    0.00   655    1     95.8   30 
15/05/21  5:00p   11.5   11.9   11.5    65    5.1   0.0   ---  0.00   0.0   ---   11.5   11.0   11.0    9.7  1034.9  0.00   0.0    29     1.25     39     0.0  0.00   0.0   0.142   0.000   23.6    36    0.03   656    1     95.9   30 
15/05/21  5:30p   10.7   11.5   10.7    65    4.4   0.0   ---  0.00   0.0   ---   10.7   10.3   10.3    8.6  1035.2  0.00   0.0     3     0.13     11     0.0  0.00   0.0   0.159   0.000   23.6    36    0.00   666    1     97.4   30 
15/05/21  6:00p    9.8   10.7    9.8    69    4.4   0.0   ---  0.00   0.0   ---    9.8    9.6    9.6    7.8  1035.4  0.00   0.0     0     0.00      0     0.0  0.00   0.0   0.178   0.000   23.5    36    0.00   673    1     98.4   30 
15/05/21  6:30p    9.7    9.8    9.7    72    4.9   0.0   ---  0.00   0.0   ---    9.7    9.5    9.5    7.8  1035.7  0.00   0.0     0     0.00      0     0.0  0.00   0.0   0.181   0.000   23.5    36    0.00   679    1     99.3   30 
15/05/21  7:00p    9.0    9.7    9.0    75    4.8   0.0   ---  0.00   0.0   ---    9.0    8.8    8.8    7.1  1035.9  0.00   0.0     0     0.00      0     0.0  0.00   0.0   0.194   0.000   23.5    36    0.03   653    1     95.5   30 
15/05/21  7:30p    7.9    9.0    7.9    80    4.7   0.0   ---  0.00   0.0   ---    7.9    7.8    7.8    6.1  1036.3  0.00   0.0     0     0.00      0     0.0  0.00   0.0   0.216   0.000   23.5    36    0.00   679    1     99.3   30 
15/05/21  8:00p    7.7    7.9    7.7    84    5.1   0.0   ---  0.00   0.0   ---    7.7    7.6    7.6    5.9  1036.5  0.00   0.0     0     0.00      0     0.0  0.00   0.0   0.222   0.000   23.4    36    0.03   680    1     99.4   30 
15/05/21  8:30p    7.1    7.7    7.1    85    4.7   0.0   ---  0.00   0.0   ---    7.1    7.0    7.0    5.3  1036.7  0.00   0.0     0     0.00      0     0.0  0.00   0.0   0.235   0.000   23.4    36    0.00   667    1     97.5   30 
15/05/21  9:00p    6.3    7.1    6.3    87    4.3   0.0   ---  0.00   0.0   ---    6.3    6.3    6.3    4.6  1036.7  0.00   0.0     0     0.00      0     0.0  0.00   0.0   0.250   0.000   23.4    36    0.00   672    1     98.2   30 
15/05/21  9:30p    5.7    6.3    5.7    88    3.9   0.0   ---  0.00   0.0   ---    5.7    5.7    5.7    3.9  1037.0  0.00   0.0     0     0.00      0     0.0  0.00   0.0   0.263   0.000   23.4    36    0.00   648    1     94.7   30 
15/05/21 10:00p    5.4    5.7    5.4    89    3.8   0.0   ---  0.00   0.0   ---    5.4    5.4    5.4    3.6  1037.1  0.00   0.0     0     0.00      0     0.0  0.00   0.0   0.269   0.000   23.4    36    0.00   643    1     94.0   30 
15/05/21 10:30p    4.8    5.4    4.8    90    3.3   0.0   ---  0.00   0.0   ---    4.8    4.7    4.7    2.9  1037.2  0.00   0.0     0     0.00      0     0.0  0.00   0.0   0.282   0.000   23.4    35    0.00   656    1     95.9   30 
15/05/21 11:00p    4.6    4.8    4.6    91    3.2   0.0   ---  0.00   0.0   ---    4.6    4.5    4.5    2.7  1036.8  0.00   0.0     0     0.00      0     0.0  0.00   0.0   0.287   0.000   23.4    35    0.00   609    1     89.0   30 
15/05/21 11:30p    4.1    4.6    4.1    91    2.7   0.0   ---  0.00   0.0   ---    4.1    4.0    4.0    2.2  1036.8  0.00   0.0     0     0.00      0     0.0  0.00   0.0   0.297   0.000   23.4    35    0.00   662    1     96.8   30 
16/05/21 12:00a    4.0    4.1    3.9    92    2.8   0.0   ---  0.00   0.0   ---    4.0    3.9    3.9    2.2  1036.5  0.00   0.0     0     0.00      0     0.0  0.00   0.0   0.299   0.000   23.4    35    0.00   663    1     96.9   30 
16/05/21 12:30a    4.0    4.0    3.9    93    3.0   0.0   ---  0.00   0.0   ---    4.0    4.0    4.0    2.2  1036.5  0.00   0.0     0     0.00      0     0.0  0.00   0.0   0.299   0.000   23.4    35    0.00   598    1     87.4   30 
16/05/21  1:00a    3.8    4.0    3.8    92    2.7   0.0   ---  0.00   0.0   ---    3.8    3.8    3.8    2.0  1036.5  0.00   0.0     0     0.00      0     0.0  0.00   0.0   0.302   0.000   23.3    35    0.00   647    1     94.6   30 
16/05/21  1:30a    3.5    3.8    3.4    93    2.5   0.0   ---  0.00   0.0   ---    3.5    3.5    3.5    1.7  1036.2  0.00   0.0     0     0.00      0     0.0  0.00   0.0   0.309   0.000   23.3    34    0.00   647    1     94.6   30 
16/05/21  2:00a    3.6    3.6    3.3    94    2.7   0.0   ---  0.00   0.0   ---    3.6    3.6    3.6    1.8  1036.1  0.00   0.0     0     0.00      0     0.0  0.00   0.0   0.308   0.000   23.2    34    0.00   624    1     91.2   30 
16/05/21  2:30a    4.1    4.1    3.6    94    3.2   0.0   ---  0.00   0.0   ---    4.1    4.1    4.1    2.3  1036.0  0.00   0.0     0     0.00      0     0.0  0.00   0.0   0.296   0.000   23.3    34    0.00   637    1     93.1   30 
16/05/21  3:00a    4.4    4.4    4.1    94    3.6   0.0   ---  0.00   0.0   ---    4.4    4.5    4.5    2.7  1035.8  0.00   0.0     0     0.00      0     0.0  0.00   0.0   0.289   0.000   23.3    34    0.00   646    1     94.4   30 
16/05/21  3:30a    4.4    4.4    4.3    94    3.6   0.0   ---  0.00   0.0   ---    4.4    4.5    4.5    2.7  1035.8  0.00   0.0     0     0.00      0     0.0  0.00   0.0   0.289   0.000   23.3    34    0.00   609    1     89.0   30 
16/05/21  4:00a    4.5    4.6    4.4    94    3.6   0.0   ---  0.00   0.0   ---    4.5    4.6    4.6    2.8  1035.4  0.00   0.0     0     0.00      0     0.0  0.00   0.0   0.288   0.000   23.3    34    0.00   622    1     90.9   30 
16/05/21  4:30a    4.7    4.8    4.5    94    3.8   0.0   ---  0.00   0.0   ---    4.7    4.7    4.7    2.9  1035.4  0.00   0.0     0     0.00      0     0.0  0.00   0.0   0.285   0.000   23.2    34    0.00   608    1     88.9   30 
16/05/21  5:00a    5.3    5.3    4.6    95    4.5   0.0   ---  0.00   0.0   ---    5.3    5.3    5.3    3.6  1035.4  0.00   0.0     0     0.00      0     0.0  0.00   0.0   0.272   0.000   23.3    34    0.00   623    1     91.1   30 
16/05/21  5:30a    5.8    5.8    5.3    95    5.0   0.0   ---  0.00   0.0   ---    5.8    5.8    5.8    4.1  1035.4  0.00   0.0     0     0.00      0     0.0  0.00   0.0   0.262   0.000   23.2    34    0.00   613    1     89.6   30 
16/05/21  6:00a    6.0    6.0    5.8    94    5.1   0.0   ---  0.00   0.0   ---    6.0    6.1    6.1    4.3  1035.4  0.00   0.0     0     0.00      0     0.0  0.00   0.0   0.257   0.000   23.2    34    0.00   617    1     90.2   30 
16/05/21  6:30a    6.3    6.3    6.0    94    5.4   0.0   ---  0.00   0.0   ---    6.3    6.3    6.3    4.6  1035.5  0.00   0.0     0     0.00      0     0.0  0.00   0.0   0.251   0.000   23.2    34    0.00   616    1     90.1   30 
16/05/21  7:00a    6.6    6.7    6.3    92    5.4   0.0   ---  0.00   0.0   ---    6.6    6.7    6.7    4.9  1035.6  0.00   0.0     0     0.00      0     0.0  0.00   0.0   0.244   0.000   23.2    34    0.00   630    1     92.1   30 
16/05/21  7:30a    7.0    7.0    6.7    91    5.6   0.0   ---  0.00   0.0   ---    7.0    7.1    7.1    5.4  1035.8  0.00   0.0     4     0.17     12     0.0  0.00   0.0   0.236   0.000   23.2    34    0.00   635    1     92.8   30 
16/05/21  8:00a    7.8    7.8    7.0    87    5.7   0.0   ---  0.00   0.0   ---    7.8    7.8    7.8    7.2  1035.7  0.00   0.0    25     1.08     47     0.0  0.00   0.0   0.220   0.000   23.2    34    0.00   635    1     92.8   30 
16/05/21  8:30a    8.7    8.7    7.8    83    6.0   0.0   ---  0.00   0.0   ---    8.7    8.7    8.7    9.2  1035.8  0.00   0.0    72     3.10     90     0.0  0.00   0.0   0.200   0.000   23.2    34    0.00   616    1     90.1   30 
16/05/21  9:00a    9.4    9.4    8.7    79    6.0   0.0   ---  0.00   0.0   ---    9.4    9.4    9.4   10.5  1035.8  0.00   0.0   106     4.56    141     0.0  0.00   0.0   0.185   0.000   23.2    34    0.05   687    1    100.0   30 
16/05/21  9:30a   10.1   10.1    9.4    79    6.6   0.0   ---  0.00   0.0   ---   10.1   10.0   10.0   11.5  1035.4  0.00   0.0   136     5.85    339     0.0  0.00   0.5   0.172   0.000   23.2    34    0.00   669    1     97.8   30 
16/05/21 10:00a   12.1   12.1   10.1    72    7.2   0.0   ---  0.00   0.0   ---   12.1   11.7   11.7   16.4  1035.0  0.00   0.0   363    15.61    394     0.7  0.15   0.8   0.131   0.000   23.3    34    0.13   672    1     98.2   30 
16/05/21 10:30a   13.9   13.9   12.1    65    7.5   0.0   ---  0.00   0.0   ---   13.9   13.4   13.4   18.4  1034.8  0.00   0.0   423    18.19    462     1.0  0.21   1.2   0.091   0.000   23.3    34    0.00   683    1     99.9   30 
16/05/21 11:00a   14.5   14.7   13.9    62    7.3   0.0   ---  0.00   0.0   ---   14.5   13.8   13.8   19.1  1034.6  0.00   0.0   466    20.04    649     1.2  0.26   1.4   0.080   0.000   23.3    34    0.23   683    1     99.9   30 
16/05/21 11:30a   14.6   14.6   14.2    62    7.4   0.0   ---  0.00   0.0   ---   14.6   13.9   13.9   17.6  1034.3  0.00   0.0   322    13.85    534     1.0  0.21   1.5   0.078   0.000   23.4    34    0.00   675    1     98.7   30 
16/05/21 12:00p   14.3   14.7   14.3    63    7.4   0.0   ---  0.00   0.0   ---   14.3   13.7   13.7   14.4  1034.0  0.00   0.0   118     5.07    248     0.2  0.04   0.9   0.083   0.000   23.5    34    0.13   673    1     98.4   30 
16/05/21 12:30p   14.2   14.3   14.2    65    7.7   0.0   ---  0.00   0.0   ---   14.2   13.6   13.6   13.8  1033.7  0.00   0.0    85     3.66    118     0.0  0.00   0.0   0.087   0.000   23.5    34    0.00   666    1     97.4   30 
16/05/21  1:00p   14.6   14.6   14.0    65    8.1   0.0   ---  0.00   0.0   ---   14.6   14.1   14.1   16.0  1033.4  0.00   0.0   197     8.47    524     0.6  0.13   1.8   0.078   0.000   23.5    34    0.08   684    1    100.0   30 
16/05/21  1:30p   14.6   14.8   14.6    65    8.0   0.0   ---  0.00   0.0   ---   14.6   14.0   14.0   15.0  1033.1  0.00   0.0   130     5.59    216     0.3  0.06   0.8   0.079   0.000   23.5    34    0.00   685    1    100.0   30 
16/05/21  2:00p   14.8   14.8   14.4    66    8.5   0.0   ---  0.00   0.0   ---   14.8   14.3   14.3   16.4  1032.8  0.00   0.0   198     8.52    318     0.5  0.11   1.0   0.074   0.000   23.5    35    0.10   684    1    100.0   30 
16/05/21  2:30p   14.0   14.8   14.0    67    8.0   0.0   ---  0.00   0.0   ---   14.0   13.5   13.5   14.4  1032.7  0.00   0.0   112     4.82    197     0.0  0.00   0.5   0.090   0.000   23.5    35    0.00   681    1     99.6   30 
16/05/21  3:00p   13.8   14.0   13.8    68    8.0   0.0   ---  0.00   0.0   ---   13.8   13.3   13.3   13.4  1032.8  0.00   0.0    69     2.97    113     0.0  0.00   0.0   0.095   0.000   23.5    35    0.05   688    1    100.0   30 
16/05/21  3:30p   14.1   14.1   13.8    68    8.2   0.0   ---  0.00   0.0   ---   14.1   13.6   13.6   13.6  1032.8  0.00   0.0    57     2.45     81     0.0  0.00   0.0   0.089   0.000   23.5    35    0.00   682    1     99.7   30 
16/05/21  4:00p   14.3   14.3   14.0    68    8.4   0.0   ---  0.00   0.0   ---   14.3   13.8   13.8   14.7  1032.4  0.00   0.0    88     3.78    151     0.0  0.00   0.0   0.084   0.000   23.5    35    0.05   679    1     99.3   30 
16/05/21  4:30p   13.8   14.3   13.8    72    8.8   0.0   ---  0.00   0.0   ---   13.8   13.4   13.4   12.8  1032.6  0.00   0.0    24     1.03     46     0.0  0.00   0.0   0.095   0.000   23.5    35    0.00   680    1     99.4   30 
16/05/21  5:00p   12.9   13.8   12.9    78    9.2   0.0   ---  0.00   0.0   ---   12.9   12.7   12.7   11.3  1033.0  0.25   0.0     5     0.22     12     0.0  0.00   0.0   0.112   0.000   23.5    36    0.03   680    1     99.4   30 
16/05/21  5:30p   11.9   12.9   11.9    87    9.8   0.0   ---  0.00   0.0   ---   11.9   11.9   11.9   10.5  1033.2  0.51   3.8     0     0.00      0     0.0  0.00   0.0   0.133   0.000   23.5    36    0.00   652    1     95.3   30 
16/05/21  6:00p   11.6   11.9   11.6    90   10.0   0.0   ---  0.00   0.0   ---   11.6   11.6   11.6   10.2  1033.2  0.00   0.0     0     0.00      0     0.0  0.00   0.0   0.141   0.000   23.5    36    0.00   655    1     95.8   30 
16/05/21  6:30p   11.5   11.6   11.4    91   10.1   0.0   ---  0.00   0.0   ---   11.5   11.6   11.6   10.2  1033.5  0.25   0.0     0     0.00      0     0.0  0.00   0.0   0.142   0.000   23.5    36    0.00   650    1     95.0   30 
16/05/21  7:00p   11.5   11.6   11.5    91   10.1   0.0   ---  0.00   0.0   ---   11.5   11.6   11.6   10.2  1033.5  0.00   0.0     0     0.00      0     0.0  0.00   0.0   0.142   0.000   23.5    36    0.00   662    1     96.8   30 
16/05/21  7:30p   11.3   11.5   11.3    92   10.0   0.0   ---  0.00   0.0   ---   11.3   11.4   11.4   10.0  1033.7  0.00   0.0     0     0.00      0     0.0  0.00   0.0   0.147   0.000   23.5    37    0.00   630    1     92.1   30 
16/05/21  8:00p   11.1   11.3   11.1    91    9.7   0.0   ---  0.00   0.0   ---   11.1   11.2   11.2    9.8  1033.8  0.00   0.0     0     0.00      0     0.0  0.00   0.0   0.150   0.000   23.4    37    0.00   649    1     94.9   30 
16/05/21  8:30p   11.2   11.2   11.1    90    9.6   0.0   ---  0.00   0.0   ---   11.2   11.3   11.3    9.8  1033.7  0.00   0.0     0     0.00      0     0.0  0.00   0.0   0.149   0.000   23.4    37    0.00   648    1     94.7   30 
16/05/21  9:00p   11.7   11.7   11.2    85    9.2   0.0   ---  0.00   0.0   ---   11.7   11.6   11.6   10.2  1033.9  0.00   0.0     0     0.00      0     0.0  0.00   0.0   0.139   0.000   23.4    37    0.00   647    1     94.6   30 
16/05/21  9:30p   12.0   12.0   11.7    81    8.8   0.0   ---  0.00   0.0   ---   12.0   11.8   11.8   10.4  1034.1  0.00   0.0     0     0.00      0     0.0  0.00   0.0   0.132   0.000   23.4    37    0.00   621    1     90.8   30 
16/05/21 10:00p   12.3   12.3   12.0    78    8.6   0.0   ---  0.00   0.0   ---   12.3   12.1   12.1   10.7  1034.3  0.00   0.0     0     0.00      0     0.0  0.00   0.0   0.125   0.000   23.4    37    0.03   662    1     96.8   30 
16/05/21 10:30p   12.5   12.5   12.3    78    8.8   0.0   ---  0.00   0.0   ---   12.5   12.3   12.3   10.8  1034.4  0.00   0.0     0     0.00      0     0.0  0.00   0.0   0.122   0.000   23.5    37    0.00   627    1     91.7   30 
16/05/21 11:00p   12.4   12.5   12.4    79    8.9   0.0   ---  0.00   0.0   ---   12.4   12.3   12.3   10.8  1034.3  0.00   0.0     0     0.00      0     0.0  0.00   0.0   0.123   0.000   23.4    37    0.03   671    1     98.1   30 
16/05/21 11:30p   12.3   12.4   12.3    81    9.1   0.0   ---  0.00   0.0   ---   12.3   12.1   12.1   10.7  1034.4  0.00   0.0     0     0.00      0     0.0  0.00   0.0   0.126   0.000   23.4    38    0.00   664    1     97.1   30 
17/05/21 12:00a   12.1   12.3   12.1    83    9.3   0.0   ---  0.00   0.0   ---   12.1   11.9   11.9   10.5  1034.3  0.00   0.0     0     0.00      0     0.0  0.00   0.0   0.131   0.000   23.4    38    0.03   654    1     95.6   30 
17/05/21 12:30a   12.0   12.1   12.0    84    9.4   0.0   ---  0.00   0.0   ---   12.0   11.9   11.9   10.5  1034.3  0.00   0.0     0     0.00      0     0.0  0.00   0.0   0.132   0.000   23.4    38    0.00   665    1     97.2   30 
17/05/21  1:00a   11.8   12.1   11.8    86    9.6   0.0   ---  0.00   0.0   ---   11.8   11.8   11.8   10.3  1034.4  0.00   0.0     0     0.00      0     0.0  0.00   0.0   0.135   0.000   23.4    38    0.00   657    1     96.1   30 
17/05/21  1:30a   11.7   11.8   11.7    88    9.7   0.0   ---  0.00   0.0   ---   11.7   11.7   11.7   10.2  1034.3  0.00   0.0     0     0.00      0     0.0  0.00   0.0   0.139   0.000   23.4    38    0.00   667    1     97.5   30 
17/05/21  2:00a   11.6   11.8   11.6    88    9.7   0.0   ---  0.00   0.0   ---   11.6   11.6   11.6   10.2  1034.5  0.00   0.0     0     0.00      0     0.0  0.00   0.0   0.140   0.000   23.4    38    0.00   650    1     95.0   30 
17/05/21  2:30a   11.6   11.6   11.5    89    9.8   0.0   ---  0.00   0.0   ---   11.6   11.6   11.6   10.2  1034.7  0.25   0.0     0     0.00      0     0.0  0.00   0.0   0.141   0.000   23.4    38    0.00   623    1     91.1   30 
17/05/21  3:00a   11.4   11.6   11.4    90    9.8   0.0   ---  0.00   0.0   ---   11.4   11.4   11.4   10.0  1034.9  0.00   0.0     0     0.00      0     0.0  0.00   0.0   0.145   0.000   23.4    38    0.00   662    1     96.8   30 
17/05/21  3:30a   11.2   11.4   11.2    91    9.8   0.0   ---  0.00   0.0   ---   11.2   11.3   11.3    9.9  1035.0  0.00   0.0     0     0.00      0     0.0  0.00   0.0   0.148   0.000   23.4    38    0.00   657    1     96.1   30 
17/05/21  4:00a   11.2   11.3   11.2    91    9.8   0.0   ---  0.00   0.0   ---   11.2   11.3   11.3    9.8  1035.0  0.25   0.0     0     0.00      0     0.0  0.00   0.0   0.149   0.000   23.4    38    0.00   654    1     95.6   30 
17/05/21  4:30a   10.8   11.2   10.8    92    9.5   0.0   ---  0.00   0.0   ---   10.8   10.9   10.9    9.5  1035.1  0.00   0.0     0     0.00      0     0.0  0.00   0.0   0.157   0.000   23.4    39    0.00   662    1     96.8   30 
17/05/21  5:00a   10.4   10.8   10.4    92    9.1   0.0   ---  0.00   0.0   ---   10.4   10.6   10.6    9.1  1035.4  0.00   0.0     0     0.00      0     0.0  0.00   0.0   0.166   0.000   23.4    39    0.00   641    1     93.7   30 
17/05/21  5:30a    9.7   10.4    9.7    92    8.5   0.0   ---  0.00   0.0   ---    9.7    9.9    9.9    8.5  1035.7  0.00   0.0     0     0.00      0     0.0  0.00   0.0   0.179   0.000   23.5    38    0.00   483    1     70.6   30 
17/05/21  6:00a    8.6    9.7    8.6    93    7.5   0.0   ---  0.00   0.0   ---    8.6    8.8    8.8    7.3  1036.0  0.00   0.0     0     0.00      0     0.0  0.00   0.0   0.203   0.000   23.4    39    0.00   534    1     78.1   30 
17/05/21  6:30a    8.6    8.6    8.4    94    7.7   0.0   ---  0.00   0.0   ---    8.6    8.8    8.8    7.3  1036.4  0.00   0.0     0     0.00      0     0.0  0.00   0.0   0.203   0.000   23.4    39    0.00   533    1     77.9   30 
17/05/21  7:00a    8.2    8.6    8.2    94    7.3   0.0   ---  0.00   0.0   ---    8.2    8.3    8.3    6.8  1036.8  0.00   0.0     0     0.00      0     0.0  0.00   0.0   0.212   0.000   23.4    38    0.00   546    1     79.8   30 
17/05/21  7:30a    8.7    8.7    8.2    95    7.9   0.0   ---  0.00   0.0   ---    8.7    8.9    8.9    7.4  1036.9  0.00   0.0     4     0.17     14     0.0  0.00   0.0   0.201   0.000   23.3    39    0.00   548    1     80.1   30 
17/05/21  8:00a    8.8    8.8    8.5    95    8.1   0.0   ---  0.00   0.0   ---    8.8    9.1    9.1    8.7  1037.3  0.00   0.0    31     1.33     72     0.0  0.00   0.0   0.198   0.000   23.4    39    0.00   566    1     82.7   30 
17/05/21  8:30a   10.1   10.1    8.9    95    9.3   0.0   ---  0.00   0.0   ---   10.1   10.3   10.3   11.5  1038.0  0.00   0.0    95     4.09    162     0.0  0.00   0.0   0.172   0.000   23.6    39    0.00   630    1     92.1   30 
17/05/21  9:00a   10.6   10.6   10.1    96    9.9   0.0   ---  0.00   0.0   ---   10.6   10.8   10.8   11.8  1038.1  0.00   0.0    96     4.13    364     0.0  0.00   0.0   0.162   0.000   23.7    40    0.05   628    1     91.8   30 
17/05/21  9:30a   11.3   11.3   10.6    96   10.7   0.0   ---  0.00   0.0   ---   11.3   11.4   11.4   14.1  1038.6  0.00   0.0   191     8.21    417     0.0  0.00   0.5   0.147   0.000   23.9    40    0.00   655    1     95.8   30 
17/05/21 10:00a   12.1   12.1   11.3    92   10.8   0.0   ---  0.00   0.0   ---   12.1   12.2   12.2   16.1  1038.6  0.00   0.0   284    12.21    483     0.4  0.09   0.7   0.131   0.000   24.1    41    0.13   663    1     96.9   30 
17/05/21 10:30a   12.9   12.9   12.1    86   10.6   0.0   ---  0.00   0.0   ---   12.9   12.8   12.8   15.3  1038.8  0.00   0.0   206     8.86    388     0.4  0.09   0.9   0.113   0.000   24.4    40    0.00   619    1     90.5   30 
17/05/21 11:00a   13.7   13.7   12.9    79   10.1   0.0   ---  0.00   0.0   ---   13.7   13.6   13.6   17.6  1039.0  0.25   0.0   326    14.02    679     0.9  0.19   1.3   0.096   0.000   24.7    41    0.13   640    1     93.6   30 
17/05/21 11:30a   14.1   14.1   13.3    75    9.7   0.0   ---  0.00   0.0   ---   14.1   13.8   13.8   17.3  1039.0  0.00   0.0   303    13.03    643     1.1  0.24   1.5   0.089   0.000   25.0    41    0.00   645    1     94.3   30 
17/05/21 12:00p   14.2   14.2   13.9    73    9.4   0.0   ---  0.00   0.0   ---   14.2   13.9   13.9   17.0  1038.8  0.00   0.0   274    11.78    636     1.1  0.24   1.7   0.086   0.000   25.2    40    0.15   644    1     94.2   30 
17/05/21 12:30p   14.6   15.0   14.2    68    8.7   0.0   ---  0.00   0.0   ---   14.6   14.1   14.1   19.2  1038.6  0.00   0.0   468    20.13    731     1.4  0.30   1.9   0.079   0.000   25.3    39    0.00   645    1     94.3   30 
17/05/21  1:00p   15.1   15.1   14.4    65    8.6   0.0   ---  0.00   0.0   ---   15.1   14.6   14.6   19.8  1038.3  0.00   0.0   468    20.13    612     1.4  0.30   1.7   0.067   0.000   25.3    38    0.23   666    1     97.4   30 
17/05/21  1:30p   15.3   15.7   15.1    64    8.5   0.0   ---  0.00   0.0   ---   15.3   14.7   14.7   18.2  1038.5  0.00   0.0   293    12.60    758     1.1  0.24   1.7   0.064   0.000   25.5    38    0.00   658    1     96.2   30 
17/05/21  2:00p   15.1   15.3   14.9    66    8.8   0.0   ---  0.00   0.0   ---   15.1   14.6   14.6   19.1  1038.5  0.00   0.0   367    15.78    617     1.0  0.21   1.4   0.067   0.000   25.5    38    0.20   692    1    100.0   30 
17/05/21  2:30p   14.3   15.2   14.3    66    8.0   0.0   ---  0.00   0.0   ---   14.3   13.7   13.7   15.3  1038.5  0.00   0.0   150     6.45    241     0.1  0.02   1.0   0.084   0.000   25.6    37    0.00   664    1     97.1   30 
17/05/21  3:00p   15.3   15.3   14.3    62    8.0   0.0   ---  0.00   0.0   ---   15.3   14.6   14.6   19.5  1038.6  0.00   0.0   377    16.21    468     0.7  0.15   0.8   0.064   0.000   25.5    38    0.15   681    1     99.6   30 
17/05/21  3:30p   15.0   15.3   15.0    60    7.3   0.0   ---  0.00   0.0   ---   15.0   14.3   14.3   17.8  1039.0  0.00   0.0   244    10.49    383     0.1  0.02   0.6   0.069   0.000   25.4    37    0.00   684    1    100.0   30 
17/05/21  4:00p   14.5   15.0   14.5    61    7.1   0.0   ---  0.00   0.0   ---   14.5   13.8   13.8   15.4  1039.1  0.00   0.0   123     5.29    229     0.0  0.00   0.0   0.080   0.000   25.1    36    0.10   660    1     96.5   30 
17/05/21  4:30p   14.1   14.5   14.1    65    7.6   0.0   ---  0.00   0.0   ---   14.1   13.5   13.5   14.2  1039.3  0.00   0.0    77     3.31    113     0.0  0.00   0.0   0.089   0.000   24.8    36    0.00   636    1     93.0   30 
17/05/21  5:00p   13.3   14.1   13.3    66    7.1   0.0   ---  0.00   0.0   ---   13.3   12.7   12.7   11.4  1039.6  0.00   0.0    31     1.33     65     0.0  0.00   0.0   0.105   0.000   24.5    37    0.03   629    1     92.0   30 
17/05/21  5:30p   12.1   13.3   12.1    71    7.0   0.0   ---  0.00   0.0   ---   12.1   11.7   11.7   10.1  1039.7  0.00   0.0     4     0.17     12     0.0  0.00   0.0   0.131   0.000   24.5    38    0.00   669    1     97.8   30 
17/05/21  6:00p   11.1   12.1   11.1    76    7.0   0.0   ---  0.00   0.0   ---   11.1   10.9   10.9    9.2  1040.1  0.00   0.0     0     0.00      0     0.0  0.00   0.0   0.152   0.000   24.3    38    0.00   650    1     95.0   30 
17/05/21  6:30p   10.4   11.1   10.4    81    7.3   0.0   ---  0.00   0.0   ---   10.4   10.4   10.4    8.7  1040.6  0.00   0.0     0     0.00      0     0.0  0.00   0.0   0.166   0.000   24.2    38    0.00   673    1     98.4   30 
17/05/21  7:00p   10.0   10.4   10.0    84    7.4   0.0   ---  0.00   0.0   ---   10.0   10.1   10.1    8.4  1040.9  0.00   0.0     0     0.00      0     0.0  0.00   0.0   0.174   0.000   24.1    41    0.03   676    1     98.8   30 
17/05/21  7:30p    9.4   10.0    9.4    86    7.2   0.0   ---  0.00   0.0   ---    9.4    9.4    9.4    7.8  1041.1  0.00   0.0     0     0.00      0     0.0  0.00   0.0   0.186   0.000   24.1    43    0.00   697    1    100.0   30 
17/05/21  8:00p    8.9    9.4    8.9    88    7.0   0.0   ---  0.00   0.0   ---    8.9    8.9    8.9    7.3  1041.4  0.00   0.0     0     0.00      0     0.0  0.00   0.0   0.197   0.000   24.0    43    0.00   669    1     97.8   30 
17/05/21  8:30p    8.8    8.9    8.8    89    7.1   0.0   ---  0.00   0.0   ---    8.8    8.9    8.9    7.2  1041.4  0.00   0.0     0     0.00      0     0.0  0.00   0.0   0.199   0.000   24.0    44    0.00   699    1    100.0   30 
17/05/21  9:00p    8.8    8.8    8.8    89    7.1   0.0   ---  0.00   0.0   ---    8.8    8.9    8.9    7.3  1041.5  0.00   0.0     0     0.00      0     0.0  0.00   0.0   0.198   0.000   23.9    44    0.00   695    1    100.0   30 
17/05/21  9:30p    8.9    8.9    8.8    89    7.2   0.0   ---  0.00   0.0   ---    8.9    9.0    9.0    7.3  1041.7  0.00   0.0     0     0.00      0     0.0  0.00   0.0   0.197   0.000   23.9    43    0.00   699    1    100.0   30 
17/05/21 10:00p    9.1    9.1    8.9    89    7.3   0.0   ---  0.00   0.0   ---    9.1    9.2    9.2    7.5  1041.8  0.00   0.0     0     0.00      0     0.0  0.00   0.0   0.193   0.000   23.8    43    0.00   698    1    100.0   30 
17/05/21 10:30p    9.1    9.1    9.1    89    7.3   0.0   ---  0.00   0.0   ---    9.1    9.2    9.2    7.5  1041.8  0.00   0.0     0     0.00      0     0.0  0.00   0.0   0.193   0.000   23.8    42    0.00   646    1     94.4   30 
17/05/21 11:00p    9.0    9.1    9.0    89    7.3   0.0   ---  0.00   0.0   ---    9.0    9.1    9.1    7.4  1041.8  0.00   0.0     0     0.00      0     0.0  0.00   0.0   0.194   0.000   23.7    42    0.00   689    1    100.0   30 
17/05/21 11:30p    8.9    9.0    8.9    89    7.2   0.0   ---  0.00   0.0   ---    8.9    9.1    9.1    7.4  1041.5  0.00   0.0     0     0.00      0     0.0  0.00   0.0   0.196   0.000   23.7    41    0.00   694    1    100.0   30 
18/05/21 12:00a    8.7    9.0    8.7    89    7.0   0.0   ---  0.00   0.0   ---    8.7    8.8    8.8    7.2  1041.4  0.00   0.0     0     0.00      0     0.0  0.00   0.0   0.200   0.000   23.7    41    0.00   694    1    100.0   30 
18/05/21 12:30a    8.4    8.7    8.4    90    6.9   0.0   ---  0.00   0.0   ---    8.4    8.6    8.6    6.9  1041.6  0.00   0.0     0     0.00      0     0.0  0.00   0.0   0.206   0.000   23.7    40    0.00   667    1     97.5   30 
18/05/21  1:00a    8.5    8.5    8.4    91    7.1   0.0   ---  0.00   0.0   ---    8.5    8.6    8.6    6.9  1041.5  0.00   0.0     0     0.00      0     0.0  0.00   0.0   0.205   0.000   23.6    40    0.00   690    1    100.0   30 
18/05/21  1:30a    8.6    8.6    8.5    91    7.2   0.0   ---  0.00   0.0   ---    8.6    8.7    8.7    7.0  1041.4  0.00   0.0     0     0.00      0     0.0  0.00   0.0   0.204   0.000   23.5    40    0.00   689    1    100.0   30 
18/05/21  2:00a    8.6    8.6    8.6    91    7.2   0.0   ---  0.00   0.0   ---    8.6    8.7    8.7    7.0  1041.3  0.00   0.0     0     0.00      0     0.0  0.00   0.0   0.204   0.000   23.5    40    0.00   697    1    100.0   30 
18/05/21  2:30a    8.6    8.6    8.6    91    7.2   0.0   ---  0.00   0.0   ---    8.6    8.7    8.7    7.0  1041.3  0.00   0.0     0     0.00      0     0.0  0.00   0.0   0.204   0.000   23.5    39    0.00   694    1    100.0   30 
18/05/21  3:00a    8.7    8.7    8.6    90    7.2   0.0   ---  0.00   0.0   ---    8.7    8.8    8.8    7.2  1041.2  0.00   0.0     0     0.00      0     0.0  0.00   0.0   0.200   0.000   23.5    39    0.00   693    1    100.0   30 
18/05/21  3:30a    8.5    8.7    8.5    89    6.8   0.0   ---  0.00   0.0   ---    8.5    8.6    8.6    6.9  1041.1  0.00   0.0     0     0.00      0     0.0  0.00   0.0   0.205   0.000   23.5    39    0.00   692    1    100.0   30 
18/05/21  4:00a    8.4    8.5    8.4    90    6.9   0.0   ---  0.00   0.0   ---    8.4    8.6    8.6    6.9  1041.1  0.00   0.0     0     0.00      0     0.0  0.00   0.0   0.206   0.000   23.5    39    0.00   693    1    100.0   30 
18/05/21  4:30a    8.5    8.5    8.4    90    7.0   0.0   ---  0.00   0.0   ---    8.5    8.6    8.6    6.9  1041.4  0.00   0.0     0     0.00      0     0.0  0.00   0.0   0.205   0.000   23.5    39    0.00   695    1    100.0   30 
18/05/21  5:00a    8.6    8.6    8.5    90    7.1   0.0   ---  0.00   0.0   ---    8.6    8.7    8.7    7.1  1041.5  0.00   0.0     0     0.00      0     0.0  0.00   0.0   0.203   0.000   23.5    39    0.00   693    1    100.0   30 
18/05/21  5:30a    8.7    8.7    8.6    90    7.1   0.0   ---  0.00   0.0   ---    8.7    8.8    8.8    7.1  1041.7  0.00   0.0     0     0.00      0     0.0  0.00   0.0   0.201   0.000   23.5    39    0.00   693    1    100.0   30 
18/05/21  6:00a    8.7    8.7    8.6    90    7.1   0.0   ---  0.00   0.0   ---    8.7    8.8    8.8    7.1  1041.8  0.00   0.0     0     0.00      0     0.0  0.00   0.0   0.201   0.000   23.4    38    0.00   694    1    100.0   30 
18/05/21  6:30a    8.6    8.7    8.6    90    7.1   0.0   ---  0.00   0.0   ---    8.6    8.7    8.7    7.1  1041.8  0.00   0.0     0     0.00      0     0.0  0.00   0.0   0.203   0.000   23.4    38    0.00   688    1    100.0   30 
18/05/21  7:00a    8.3    8.7    8.3    91    6.9   0.0   ---  0.00   0.0   ---    8.3    8.4    8.4    6.8  1041.9  0.00   0.0     0     0.00      0     0.0  0.00   0.0   0.208   0.000   23.4    38    0.00   679    1     99.3   30 
18/05/21  7:30a    8.6    8.6    8.3    91    7.2   0.0   ---  0.00   0.0   ---    8.6    8.7    8.7    7.1  1042.2  0.00   0.0     6     0.26     21     0.0  0.00   0.0   0.204   0.000   23.4    38    0.00   682    1     99.7   30 
18/05/21  8:00a    8.9    8.9    8.6    91    7.6   0.0   ---  0.00   0.0   ---    8.9    9.1    9.1    7.8  1042.3  0.00   0.0    32     1.38     44     0.0  0.00   0.0   0.196   0.000   23.5    38    0.00   679    1     99.3   30 
18/05/21  8:30a    9.4    9.4    8.9    90    7.9   0.0   ---  0.00   0.0   ---    9.4    9.6    9.6    9.4  1042.6  0.00   0.0    38     1.63     51     0.0  0.00   0.0   0.185   0.000   23.6    38    0.00   672    1     98.2   30 
18/05/21  9:00a   10.1   10.1    9.4    90    8.5   0.0   ---  0.00   0.0   ---   10.1   10.2   10.2   10.4  1042.8  0.00   0.0    59     2.54     69     0.0  0.00   0.0   0.172   0.000   23.7    39    0.03   645    1     94.3   30 
18/05/21  9:30a   10.6   10.6   10.1    89    8.9   0.0   ---  0.00   0.0   ---   10.6   10.7   10.7   11.4  1042.7  0.00   0.0    87     3.74    107     0.0  0.00   0.0   0.161   0.000   23.9    40    0.00   677    1     99.0   30 
18/05/21 10:00a   11.6   11.6   10.6    86    9.3   0.0   ---  0.00   0.0   ---   11.6   11.6   11.6   13.1  1042.5  0.00   0.0   141     6.06    188     0.0  0.00   0.5   0.141   0.000   24.2    40    0.05   668    1     97.7   30 
18/05/21 10:30a   12.4   12.4   11.6    81    9.3   0.0   ---  0.00   0.0   ---   12.4   12.3   12.3   14.3  1042.4  0.00   0.0   182     7.83    192     0.5  0.11   0.5   0.123   0.000   24.6    40    0.00   658    1     96.2   30 
18/05/21 11:00a   13.2   13.2   12.4    79    9.6   0.0   ---  0.00   0.0   ---   13.2   12.9   12.9   14.6  1042.2  0.00   0.0   160     6.88    167     0.5  0.11   0.5   0.108   0.000   24.9    40    0.08   653    1     95.5   30 
18/05/21 11:30a   13.7   13.7   13.2    71    8.6   0.0   ---  0.00   0.0   ---   13.7   13.3   13.3   14.6  1042.0  0.00   0.0   145     6.24    165     0.4  0.09   0.6   0.096   0.000   25.2    40    0.00   667    1     97.5   30 
18/05/21 12:00p   14.5   14.5   13.7    67    8.4   0.0   ---  0.00   0.0   ---   14.5   14.0   14.0   17.3  1041.4  0.00   0.0   294    12.64    431     1.0  0.21   1.3   0.080   0.000   25.5    39    0.10   671    1     98.1   30 
18/05/21 12:30p   14.8   14.9   14.5    65    8.3   0.0   ---  0.00   0.0   ---   14.8   14.2   14.2   17.2  1040.9  0.00   0.0   264    11.35    367     1.1  0.24   1.3   0.074   0.000   25.8    38    0.00   660    1     96.5   30 
18/05/21  1:00p   14.9   15.0   14.7    67    8.9   0.0   ---  0.00   0.0   ---   14.9   14.4   14.4   16.6  1040.6  0.00   0.0   205     8.82    271     0.8  0.17   1.2   0.071   0.000   26.1    37    0.13   644    1     94.2   30 
18/05/21  1:30p   15.1   15.1   14.8    67    9.0   0.0   ---  0.00   0.0   ---   15.1   14.6   14.6   16.1  1040.5  0.00   0.0   162     6.97    207     0.4  0.09   0.7   0.068   0.000   26.1    37    0.00   682    1     99.7   30 
18/05/21  2:00p   15.2   15.2   15.1    68    9.3   0.0   ---  0.00   0.0   ---   15.2   14.7   14.7   16.3  1040.3  0.00   0.0   158     6.79    202     0.4  0.09   0.7   0.066   0.000   26.1    38    0.08   696    1    100.0   30 
18/05/21  2:30p   15.6   15.8   15.2    67    9.5   0.0   ---  0.00   0.0   ---   15.6   15.2   15.2   18.3  1040.1  0.00   0.0   239    10.28    462     0.7  0.15   1.1   0.057   0.000   26.1    37    0.00   701    1    100.0   30 
18/05/21  3:00p   15.2   15.6   15.2    69    9.6   0.0   ---  0.00   0.0   ---   15.2   14.8   14.8   17.8  1040.0  0.00   0.0   214     9.20    475     0.5  0.11   0.8   0.065   0.000   26.0    37    0.13   693    1    100.0   30 
18/05/21  3:30p   15.1   15.2   15.1    70    9.7   0.0   ---  0.00   0.0   ---   15.1   14.7   14.7   16.2  1039.9  0.00   0.0   122     5.25    204     0.0  0.00   0.0   0.067   0.000   26.0    38    0.00   666    1     97.4   30 
18/05/21  4:00p   14.9   15.1   14.9    72    9.9   0.0   ---  0.00   0.0   ---   14.9   14.6   14.6   15.3  1039.9  0.00   0.0    81     3.48    105     0.0  0.00   0.0   0.072   0.000   25.9    38    0.05   644    1     94.2   30 
18/05/21  4:30p   14.9   14.9   14.9    72    9.9   0.0   ---  0.00   0.0   ---   14.9   14.6   14.6   14.5  1039.9  0.00   0.0    39     1.68     51     0.0  0.00   0.0   0.072   0.000   25.7    38    0.00   647    1     94.6   30 
18/05/21  5:00p   14.7   14.9   14.7    73    9.9   0.0   ---  0.00   0.0   ---   14.7   14.3   14.3   13.1  1039.9  0.00   0.0    13     0.56     23     0.0  0.00   0.0   0.076   0.000   25.5    38    0.03   661    1     96.6   30